FDX27 LFPG-KMEM
Flight info
| Callsign | FDX27 |
|---|---|
| Flight time | N/A |
| Altitude | 32000 |
| Route | ELCOB UT300 SENLO DCT JSY DCT LIZAD DCT LESLU DCT TOBOR/M083F320 NATC ELSIR/N0482F320 N414A ANATI DCT POLTY Q804 DERLO Q907 SVM DCT FWA DCT VHP DCT PXV BLUZZ5 |
| Aircraft | B77L/H-SDE1E2E3FGHIJ2J3J4J5M1RWXY/LB1D1 |
Departure
| Time | 2026-05-06 15:42 |
|---|---|
| Airport | Charles de Gaulle International Airport (LFPG) |
Arrival
| Time | N/A |
|---|---|
| Airport | Memphis International Airport (KMEM) |
| Time | Latitude | Longitude | Altitude | Speed | Heading |
|---|---|---|---|---|---|
| 2026-05-06 15:25 | 49.01237 | 2.50265 | 355 ft | 0 kts | 264° |
| 2026-05-06 15:30 | 49.01238 | 2.50261 | 363 ft | 4 kts | 275° |
| 2026-05-06 15:30 | 49.01238 | 2.50267 | 355 ft | 2 kts | 220° |
| 2026-05-06 15:30 | 49.01254 | 2.50292 | 364 ft | 4 kts | 241° |
| 2026-05-06 15:31 | 49.01261 | 2.50326 | 362 ft | 4 kts | 271° |
| 2026-05-06 15:31 | 49.01261 | 2.50362 | 360 ft | 2 kts | 265° |
| 2026-05-06 15:31 | 49.01262 | 2.50391 | 360 ft | 4 kts | 298° |
| 2026-05-06 15:32 | 49.01229 | 2.50401 | 360 ft | 4 kts | 0° |
| 2026-05-06 15:32 | 49.01216 | 2.50401 | 364 ft | 0 kts | 355° |
| 2026-05-06 15:33 | 49.01224 | 2.50400 | 364 ft | 6 kts | 355° |
| 2026-05-06 15:33 | 49.01307 | 2.50390 | 359 ft | 14 kts | 355° |
| 2026-05-06 15:34 | 49.01401 | 2.50396 | 359 ft | 14 kts | 29° |
| 2026-05-06 15:34 | 49.01434 | 2.50527 | 360 ft | 14 kts | 83° |
| 2026-05-06 15:34 | 49.01443 | 2.50671 | 361 ft | 14 kts | 85° |
| 2026-05-06 15:34 | 49.01451 | 2.50819 | 360 ft | 16 kts | 85° |
| 2026-05-06 15:35 | 49.01462 | 2.51040 | 356 ft | 25 kts | 85° |
| 2026-05-06 15:35 | 49.01475 | 2.51300 | 355 ft | 25 kts | 85° |
| 2026-05-06 15:35 | 49.01492 | 2.51560 | 360 ft | 25 kts | 84° |
| 2026-05-06 15:35 | 49.01505 | 2.51821 | 363 ft | 25 kts | 85° |
| 2026-05-06 15:36 | 49.01519 | 2.52083 | 358 ft | 25 kts | 85° |
| 2026-05-06 15:36 | 49.01533 | 2.52341 | 362 ft | 25 kts | 84° |
| 2026-05-06 15:36 | 49.01564 | 2.52597 | 366 ft | 25 kts | 54° |
| 2026-05-06 15:36 | 49.01664 | 2.52808 | 366 ft | 25 kts | 56° |
| 2026-05-06 15:37 | 49.01749 | 2.53028 | 361 ft | 25 kts | 82° |
| 2026-05-06 15:37 | 49.01764 | 2.53290 | 358 ft | 25 kts | 83° |
| 2026-05-06 15:37 | 49.01779 | 2.53551 | 363 ft | 25 kts | 86° |
| 2026-05-06 15:37 | 49.01793 | 2.53813 | 364 ft | 25 kts | 84° |
| 2026-05-06 15:38 | 49.01803 | 2.53987 | 366 ft | 25 kts | 85° |
| 2026-05-06 15:38 | 49.01814 | 2.54250 | 364 ft | 25 kts | 84° |
| 2026-05-06 15:38 | 49.01830 | 2.54512 | 366 ft | 25 kts | 86° |
| 2026-05-06 15:38 | 49.01844 | 2.54774 | 365 ft | 25 kts | 84° |
| 2026-05-06 15:39 | 49.01860 | 2.55035 | 366 ft | 25 kts | 84° |
| 2026-05-06 15:39 | 49.01873 | 2.55294 | 359 ft | 25 kts | 85° |
| 2026-05-06 15:39 | 49.01887 | 2.55553 | 365 ft | 25 kts | 85° |
| 2026-05-06 15:39 | 49.01900 | 2.55818 | 363 ft | 25 kts | 85° |
| 2026-05-06 15:40 | 49.01913 | 2.56065 | 359 ft | 23 kts | 85° |
| 2026-05-06 15:40 | 49.01958 | 2.56290 | 367 ft | 23 kts | 39° |
| 2026-05-06 15:40 | 49.02114 | 2.56311 | 365 ft | 23 kts | 357° |
| 2026-05-06 15:40 | 49.02264 | 2.56242 | 366 ft | 23 kts | 313° |
| 2026-05-06 15:41 | 49.02314 | 2.56010 | 363 ft | 30 kts | 268° |
| 2026-05-06 15:41 | 49.02287 | 2.55493 | 363 ft | 77 kts | 266° |
| 2026-05-06 15:41 | 49.02230 | 2.54386 | 365 ft | 130 kts | 265° |
| 2026-05-06 15:41 | 49.02140 | 2.52779 | 366 ft | 170 kts | 267° |
| 2026-05-06 15:42 | 49.02046 | 2.50941 | 666 ft | 177 kts | 268° |
| 2026-05-06 15:42 | 49.01945 | 2.49024 | 955 ft | 191 kts | 268° |
| 2026-05-06 15:42 | 49.01835 | 2.47012 | 1544 ft | 191 kts | 269° |
| 2026-05-06 15:42 | 49.01722 | 2.44970 | 2039 ft | 196 kts | 269° |
| 2026-05-06 15:43 | 49.01604 | 2.42788 | 2286 ft | 218 kts | 269° |
| 2026-05-06 15:43 | 49.01473 | 2.40371 | 2608 ft | 237 kts | 268° |
| 2026-05-06 15:43 | 49.01330 | 2.37789 | 3177 ft | 248 kts | 268° |
| 2026-05-06 15:43 | 49.01219 | 2.35130 | 3821 ft | 253 kts | 277° |
| 2026-05-06 15:44 | 49.01792 | 2.32616 | 4390 ft | 255 kts | 309° |
| 2026-05-06 15:44 | 49.03000 | 2.30649 | 5030 ft | 255 kts | 308° |
| 2026-05-06 15:44 | 49.03629 | 2.28095 | 5527 ft | 266 kts | 272° |
| 2026-05-06 15:44 | 49.03521 | 2.25275 | 6148 ft | 269 kts | 270° |
| 2026-05-06 15:45 | 49.03516 | 2.22408 | 6875 ft | 269 kts | 274° |
| 2026-05-06 15:45 | 49.03609 | 2.19548 | 7518 ft | 272 kts | 275° |
| 2026-05-06 15:45 | 49.03740 | 2.16627 | 8103 ft | 277 kts | 276° |
| 2026-05-06 15:45 | 49.03881 | 2.13692 | 8770 ft | 278 kts | 276° |
| 2026-05-06 15:46 | 49.04032 | 2.10760 | 9326 ft | 283 kts | 276° |
| 2026-05-06 15:46 | 49.04191 | 2.07748 | 9941 ft | 286 kts | 276° |
| 2026-05-06 15:46 | 49.04352 | 2.04704 | 10389 ft | 295 kts | 276° |
| 2026-05-06 15:46 | 49.04524 | 2.01463 | 10550 ft | 316 kts | 276° |
| 2026-05-06 15:47 | 49.04705 | 1.98010 | 10740 ft | 337 kts | 276° |
| 2026-05-06 15:47 | 49.04894 | 1.94340 | 10913 ft | 357 kts | 276° |
| 2026-05-06 15:47 | 49.05088 | 1.90548 | 11443 ft | 367 kts | 276° |
| 2026-05-06 15:47 | 49.05286 | 1.86631 | 12161 ft | 372 kts | 276° |
| 2026-05-06 15:48 | 49.05484 | 1.82664 | 12921 ft | 377 kts | 276° |
| 2026-05-06 15:48 | 49.05686 | 1.78620 | 13624 ft | 385 kts | 276° |
| 2026-05-06 15:48 | 49.05890 | 1.74528 | 14293 ft | 389 kts | 276° |
| 2026-05-06 15:48 | 49.06095 | 1.70395 | 15070 ft | 391 kts | 276° |
| 2026-05-06 15:49 | 49.06297 | 1.66261 | 15814 ft | 394 kts | 275° |
| 2026-05-06 15:49 | 49.06468 | 1.62055 | 16462 ft | 398 kts | 271° |
| 2026-05-06 15:49 | 49.06302 | 1.57818 | 17125 ft | 402 kts | 264° |
| 2026-05-06 15:49 | 49.05929 | 1.53618 | 17868 ft | 405 kts | 262° |
| 2026-05-06 15:50 | 49.05505 | 1.49355 | 18505 ft | 408 kts | 262° |
| 2026-05-06 15:50 | 49.05095 | 1.45046 | 19065 ft | 412 kts | 262° |
| 2026-05-06 15:50 | 49.04711 | 1.40687 | 19619 ft | 416 kts | 263° |
| 2026-05-06 15:50 | 49.04346 | 1.36289 | 20194 ft | 420 kts | 263° |
| 2026-05-06 15:51 | 49.03993 | 1.31896 | 20708 ft | 425 kts | 264° |
| 2026-05-06 15:51 | 49.03631 | 1.27395 | 21251 ft | 428 kts | 264° |
| 2026-05-06 15:51 | 49.03266 | 1.22879 | 21837 ft | 431 kts | 264° |
| 2026-05-06 15:51 | 49.03083 | 1.18308 | 22326 ft | 434 kts | 271° |
| 2026-05-06 15:52 | 49.03176 | 1.13685 | 22873 ft | 438 kts | 274° |
| 2026-05-06 15:52 | 49.03379 | 1.09049 | 23506 ft | 439 kts | 275° |
| 2026-05-06 15:52 | 49.03603 | 1.04388 | 23937 ft | 443 kts | 275° |
| 2026-05-06 15:52 | 49.03812 | 0.99681 | 24382 ft | 446 kts | 274° |
| 2026-05-06 15:53 | 49.03996 | 0.94952 | 24896 ft | 447 kts | 274° |
| 2026-05-06 15:53 | 49.04157 | 0.90196 | 25330 ft | 451 kts | 273° |
| 2026-05-06 15:53 | 49.04304 | 0.85397 | 25739 ft | 455 kts | 273° |
| 2026-05-06 15:53 | 49.04441 | 0.80610 | 26169 ft | 457 kts | 273° |
| 2026-05-06 15:54 | 49.04574 | 0.75736 | 26627 ft | 459 kts | 273° |
| 2026-05-06 15:54 | 49.04705 | 0.70835 | 27067 ft | 462 kts | 273° |
| 2026-05-06 15:54 | 49.04834 | 0.65936 | 27474 ft | 465 kts | 273° |
| 2026-05-06 15:54 | 49.04962 | 0.61045 | 27883 ft | 468 kts | 273° |
| 2026-05-06 15:55 | 49.05091 | 0.56091 | 28307 ft | 470 kts | 273° |
| 2026-05-06 15:55 | 49.05219 | 0.51088 | 28660 ft | 473 kts | 273° |
| 2026-05-06 15:55 | 49.05346 | 0.46041 | 29054 ft | 475 kts | 273° |
| 2026-05-06 15:55 | 49.05471 | 0.40997 | 29454 ft | 477 kts | 273° |
| 2026-05-06 15:56 | 49.05593 | 0.35943 | 29948 ft | 476 kts | 273° |
| 2026-05-06 15:56 | 49.05713 | 0.30906 | 30406 ft | 474 kts | 272° |
| 2026-05-06 15:56 | 49.05830 | 0.25893 | 30881 ft | 472 kts | 272° |
| 2026-05-06 15:56 | 49.05945 | 0.20907 | 31329 ft | 470 kts | 272° |
| 2026-05-06 15:57 | 49.06058 | 0.15897 | 31704 ft | 470 kts | 272° |
| 2026-05-06 15:57 | 49.06168 | 0.10917 | 32006 ft | 471 kts | 272° |
| 2026-05-06 15:57 | 49.06383 | 0.00926 | 31974 ft | 476 kts | 272° |
| 2026-05-06 15:58 | 49.06592 | -0.09206 | 31987 ft | 477 kts | 272° |
| 2026-05-06 15:58 | 49.06792 | -0.19295 | 31989 ft | 475 kts | 272° |
| 2026-05-06 15:59 | 49.06982 | -0.29336 | 31983 ft | 475 kts | 272° |
| 2026-05-06 15:59 | 49.07165 | -0.39389 | 31995 ft | 476 kts | 272° |
| 2026-05-06 16:00 | 49.07340 | -0.49469 | 31992 ft | 475 kts | 272° |
| 2026-05-06 16:00 | 49.07507 | -0.59562 | 31982 ft | 474 kts | 272° |
| 2026-05-06 16:01 | 49.07665 | -0.69598 | 31985 ft | 475 kts | 272° |
| 2026-05-06 16:01 | 49.07815 | -0.79712 | 31987 ft | 476 kts | 272° |
| 2026-05-06 16:02 | 49.07955 | -0.89774 | 31976 ft | 473 kts | 272° |
| 2026-05-06 16:02 | 49.08085 | -0.99720 | 31969 ft | 469 kts | 271° |
| 2026-05-06 16:03 | 49.08208 | -1.09673 | 31984 ft | 468 kts | 271° |
| 2026-05-06 16:03 | 49.08625 | -1.19579 | 31979 ft | 467 kts | 279° |
| 2026-05-06 16:04 | 49.10081 | -1.29233 | 31988 ft | 467 kts | 285° |
| 2026-05-06 16:04 | 49.11691 | -1.38862 | 31986 ft | 469 kts | 284° |
| 2026-05-06 16:05 | 49.13271 | -1.48548 | 31986 ft | 470 kts | 284° |
| 2026-05-06 16:05 | 49.14824 | -1.58263 | 31977 ft | 471 kts | 284° |
| 2026-05-06 16:06 | 49.16361 | -1.67952 | 31984 ft | 471 kts | 284° |
| 2026-05-06 16:06 | 49.17893 | -1.77660 | 31983 ft | 471 kts | 284° |
| 2026-05-06 16:07 | 49.19420 | -1.87383 | 31987 ft | 471 kts | 284° |
| 2026-05-06 16:07 | 49.20942 | -1.97133 | 31989 ft | 471 kts | 283° |
| 2026-05-06 16:08 | 49.22465 | -2.06885 | 31994 ft | 470 kts | 284° |
| 2026-05-06 16:08 | 49.24107 | -2.16551 | 31994 ft | 470 kts | 285° |
| 2026-05-06 16:09 | 49.25785 | -2.26180 | 31992 ft | 470 kts | 285° |
| 2026-05-06 16:09 | 49.27451 | -2.35869 | 31992 ft | 470 kts | 285° |
| 2026-05-06 16:10 | 49.29095 | -2.45567 | 31989 ft | 470 kts | 284° |
| 2026-05-06 16:10 | 49.30729 | -2.55290 | 31996 ft | 470 kts | 284° |
| 2026-05-06 16:11 | 49.32352 | -2.65005 | 31995 ft | 470 kts | 284° |
| 2026-05-06 16:11 | 49.33962 | -2.74688 | 31987 ft | 470 kts | 284° |
| 2026-05-06 16:12 | 49.35570 | -2.84411 | 31993 ft | 470 kts | 284° |
| 2026-05-06 16:12 | 49.37169 | -2.94137 | 31990 ft | 470 kts | 284° |
| 2026-05-06 16:13 | 49.38493 | -3.02235 | 31988 ft | 469 kts | 284° |
| 2026-05-06 16:13 | 49.40076 | -3.11967 | 31984 ft | 469 kts | 284° |
| 2026-05-06 16:14 | 49.41651 | -3.21702 | 31981 ft | 469 kts | 284° |
| 2026-05-06 16:14 | 49.43217 | -3.31444 | 31980 ft | 469 kts | 284° |
| 2026-05-06 16:15 | 49.44779 | -3.41216 | 31982 ft | 469 kts | 284° |
| 2026-05-06 16:15 | 49.46322 | -3.50929 | 31982 ft | 470 kts | 284° |
| 2026-05-06 16:16 | 49.47866 | -3.60704 | 31983 ft | 470 kts | 283° |
| 2026-05-06 16:16 | 49.49393 | -3.70432 | 31981 ft | 470 kts | 283° |
| 2026-05-06 16:17 | 49.50920 | -3.80215 | 31984 ft | 469 kts | 283° |
| 2026-05-06 16:17 | 49.52440 | -3.90009 | 31985 ft | 469 kts | 283° |
| 2026-05-06 16:18 | 49.53946 | -3.99778 | 31991 ft | 469 kts | 283° |
| 2026-05-06 16:18 | 49.55436 | -4.09503 | 31985 ft | 468 kts | 283° |
| 2026-05-06 16:19 | 49.56930 | -4.19298 | 31993 ft | 468 kts | 283° |
| 2026-05-06 16:19 | 49.58510 | -4.28988 | 31985 ft | 468 kts | 288° |
| 2026-05-06 16:20 | 49.61105 | -4.38213 | 31994 ft | 468 kts | 298° |
| 2026-05-06 16:20 | 49.64518 | -4.46715 | 31994 ft | 469 kts | 302° |
| 2026-05-06 16:21 | 49.68050 | -4.55196 | 31992 ft | 469 kts | 302° |
| 2026-05-06 16:21 | 49.71553 | -4.63696 | 31995 ft | 469 kts | 302° |
| 2026-05-06 16:22 | 49.75018 | -4.72197 | 31995 ft | 469 kts | 301° |
| 2026-05-06 16:22 | 49.78488 | -4.80764 | 31996 ft | 468 kts | 301° |
| 2026-05-06 16:23 | 49.81943 | -4.89326 | 31998 ft | 468 kts | 301° |
| 2026-05-06 16:23 | 49.85385 | -4.97880 | 31995 ft | 467 kts | 301° |
| 2026-05-06 16:24 | 49.88802 | -5.06398 | 31993 ft | 467 kts | 301° |
| 2026-05-06 16:24 | 49.92223 | -5.14952 | 31992 ft | 466 kts | 301° |
| 2026-05-06 16:25 | 49.95625 | -5.23488 | 31996 ft | 466 kts | 301° |
| 2026-05-06 16:25 | 49.99034 | -5.32069 | 31990 ft | 466 kts | 301° |
| 2026-05-06 16:26 | 50.02437 | -5.40661 | 31994 ft | 466 kts | 301° |
| 2026-05-06 16:26 | 50.05806 | -5.49198 | 31991 ft | 466 kts | 301° |
| 2026-05-06 16:27 | 50.09201 | -5.57829 | 31996 ft | 466 kts | 301° |
| 2026-05-06 16:27 | 50.12578 | -5.66441 | 31993 ft | 466 kts | 301° |
| 2026-05-06 16:28 | 50.15933 | -5.75026 | 31991 ft | 466 kts | 301° |
| 2026-05-06 16:28 | 50.19306 | -5.83686 | 31994 ft | 466 kts | 301° |
| 2026-05-06 16:29 | 50.22665 | -5.92338 | 31998 ft | 465 kts | 301° |
| 2026-05-06 16:29 | 50.26019 | -6.01007 | 32002 ft | 466 kts | 301° |
| 2026-05-06 16:30 | 50.28822 | -6.08273 | 32004 ft | 466 kts | 301° |
| 2026-05-06 16:30 | 50.32720 | -6.18412 | 32006 ft | 466 kts | 301° |
| 2026-05-06 16:31 | 50.36041 | -6.27080 | 32015 ft | 466 kts | 301° |
| 2026-05-06 16:31 | 50.39357 | -6.35767 | 32007 ft | 467 kts | 301° |
| 2026-05-06 16:32 | 50.42695 | -6.44538 | 32011 ft | 467 kts | 301° |
| 2026-05-06 16:32 | 50.46026 | -6.53321 | 32008 ft | 468 kts | 301° |
| 2026-05-06 16:33 | 50.49332 | -6.62070 | 32014 ft | 468 kts | 301° |
| 2026-05-06 16:34 | 50.54310 | -6.75297 | 32012 ft | 468 kts | 301° |
| 2026-05-06 16:34 | 50.57604 | -6.84088 | 32008 ft | 468 kts | 300° |
| 2026-05-06 16:35 | 50.60912 | -6.92946 | 32008 ft | 468 kts | 300° |
| 2026-05-06 16:35 | 50.64211 | -7.01809 | 32008 ft | 468 kts | 300° |
| 2026-05-06 16:36 | 50.67501 | -7.10679 | 32022 ft | 468 kts | 300° |
| 2026-05-06 16:36 | 50.70769 | -7.19522 | 32009 ft | 468 kts | 300° |
| 2026-05-06 16:37 | 50.74053 | -7.28436 | 32003 ft | 468 kts | 300° |
| 2026-05-06 16:37 | 50.77322 | -7.37343 | 32002 ft | 468 kts | 300° |
| 2026-05-06 16:38 | 50.80582 | -7.46256 | 32015 ft | 468 kts | 300° |
| 2026-05-06 16:38 | 50.83819 | -7.55135 | 32017 ft | 468 kts | 300° |
| 2026-05-06 16:39 | 50.87071 | -7.64088 | 32020 ft | 468 kts | 300° |
| 2026-05-06 16:39 | 50.90302 | -7.73015 | 32002 ft | 468 kts | 299° |
| 2026-05-06 16:40 | 50.93537 | -7.81984 | 32012 ft | 468 kts | 299° |
| 2026-05-06 16:40 | 50.96747 | -7.90911 | 32015 ft | 467 kts | 299° |
| 2026-05-06 16:41 | 50.99935 | -7.99934 | 32011 ft | 467 kts | 296° |
| 2026-05-06 16:41 | 51.02466 | -8.09451 | 32014 ft | 467 kts | 291° |
| 2026-05-06 16:42 | 51.04830 | -8.19093 | 32014 ft | 467 kts | 291° |
| 2026-05-06 16:42 | 51.07203 | -8.28746 | 32001 ft | 468 kts | 291° |
| 2026-05-06 16:43 | 51.09575 | -8.38342 | 32003 ft | 468 kts | 291° |
| 2026-05-06 16:43 | 51.11966 | -8.48014 | 32005 ft | 468 kts | 291° |
| 2026-05-06 16:44 | 51.14347 | -8.57685 | 32005 ft | 469 kts | 291° |
| 2026-05-06 16:44 | 51.16706 | -8.67311 | 32006 ft | 469 kts | 291° |
| 2026-05-06 16:45 | 51.19071 | -8.77010 | 32004 ft | 469 kts | 291° |
| 2026-05-06 16:45 | 51.21428 | -8.86715 | 32007 ft | 469 kts | 291° |
| 2026-05-06 16:46 | 51.23779 | -8.96441 | 32001 ft | 469 kts | 291° |
| 2026-05-06 16:46 | 51.26104 | -9.06101 | 32004 ft | 468 kts | 291° |
| 2026-05-06 16:47 | 51.28436 | -9.15836 | 32006 ft | 468 kts | 291° |
| 2026-05-06 16:47 | 51.30763 | -9.25591 | 32003 ft | 468 kts | 291° |
| 2026-05-06 16:48 | 51.33062 | -9.35274 | 32000 ft | 468 kts | 291° |
| 2026-05-06 16:48 | 51.35380 | -9.45080 | 32261 ft | 472 kts | 291° |
| 2026-05-06 16:48 | 51.36537 | -9.49991 | 32663 ft | 470 kts | 291° |
| 2026-05-06 16:49 | 51.37675 | -9.54831 | 33113 ft | 467 kts | 291° |
| 2026-05-06 16:49 | 51.38815 | -9.59693 | 33534 ft | 465 kts | 291° |
| 2026-05-06 16:49 | 51.39947 | -9.64537 | 33901 ft | 467 kts | 292° |
| 2026-05-06 16:50 | 51.42251 | -9.74408 | 34006 ft | 475 kts | 292° |
| 2026-05-06 16:50 | 51.44559 | -9.84347 | 34006 ft | 480 kts | 292° |
| 2026-05-06 16:51 | 51.46880 | -9.94394 | 34004 ft | 480 kts | 292° |
| 2026-05-06 16:51 | 51.48804 | -10.02763 | 34003 ft | 480 kts | 292° |
| 2026-05-06 16:52 | 51.51486 | -10.14480 | 34002 ft | 480 kts | 292° |
| 2026-05-06 16:52 | 51.53780 | -10.24554 | 34004 ft | 479 kts | 292° |
| 2026-05-06 16:53 | 51.56051 | -10.34573 | 34002 ft | 479 kts | 292° |
| 2026-05-06 16:53 | 51.57958 | -10.43021 | 34008 ft | 479 kts | 292° |
| 2026-05-06 16:54 | 51.60210 | -10.53043 | 34007 ft | 479 kts | 292° |
| 2026-05-06 16:54 | 51.62469 | -10.63142 | 34011 ft | 479 kts | 292° |
| 2026-05-06 16:55 | 51.64705 | -10.73189 | 34014 ft | 479 kts | 292° |
| 2026-05-06 16:55 | 51.66949 | -10.83321 | 34017 ft | 479 kts | 292° |
| 2026-05-06 16:56 | 51.69174 | -10.93417 | 34014 ft | 480 kts | 292° |
| 2026-05-06 16:56 | 51.71398 | -11.03559 | 34017 ft | 480 kts | 292° |
| 2026-05-06 16:57 | 51.73614 | -11.13715 | 34014 ft | 480 kts | 292° |
| 2026-05-06 16:57 | 51.75825 | -11.23895 | 34017 ft | 480 kts | 292° |
| 2026-05-06 16:58 | 51.78018 | -11.34040 | 34017 ft | 480 kts | 292° |
| 2026-05-06 16:58 | 51.80214 | -11.44253 | 34018 ft | 479 kts | 292° |
| 2026-05-06 16:59 | 51.82382 | -11.54387 | 34017 ft | 479 kts | 292° |
| 2026-05-06 16:59 | 51.84554 | -11.64594 | 34022 ft | 478 kts | 292° |
| 2026-05-06 17:00 | 51.86716 | -11.74799 | 34018 ft | 478 kts | 292° |
| 2026-05-06 17:00 | 51.88855 | -11.84949 | 34022 ft | 478 kts | 292° |
| 2026-05-06 17:01 | 51.90981 | -11.95089 | 34016 ft | 477 kts | 292° |
| 2026-05-06 17:01 | 51.93111 | -12.05299 | 34020 ft | 477 kts | 292° |
| 2026-05-06 17:02 | 51.95227 | -12.15492 | 34023 ft | 477 kts | 291° |
| 2026-05-06 17:02 | 51.97338 | -12.25715 | 34020 ft | 477 kts | 291° |
| 2026-05-06 17:03 | 51.99438 | -12.35937 | 34023 ft | 476 kts | 291° |
| 2026-05-06 17:03 | 52.01513 | -12.46085 | 34019 ft | 476 kts | 291° |
| 2026-05-06 17:04 | 52.03597 | -12.56334 | 34016 ft | 476 kts | 291° |
| 2026-05-06 17:04 | 52.05653 | -12.66497 | 34016 ft | 476 kts | 291° |
| 2026-05-06 17:05 | 52.07714 | -12.76738 | 34018 ft | 476 kts | 291° |
| 2026-05-06 17:05 | 52.09768 | -12.86999 | 34011 ft | 476 kts | 291° |
| 2026-05-06 17:06 | 52.11809 | -12.97247 | 34013 ft | 475 kts | 290° |
| 2026-05-06 17:06 | 52.13830 | -13.07450 | 34009 ft | 475 kts | 290° |
| 2026-05-06 17:07 | 52.15852 | -13.17714 | 34024 ft | 475 kts | 290° |
| 2026-05-06 17:07 | 52.17855 | -13.27934 | 34020 ft | 475 kts | 290° |
| 2026-05-06 17:08 | 52.19857 | -13.38201 | 34019 ft | 475 kts | 290° |
| 2026-05-06 17:08 | 52.21854 | -13.48498 | 34011 ft | 475 kts | 290° |
| 2026-05-06 17:09 | 52.23826 | -13.58720 | 34014 ft | 475 kts | 290° |
| 2026-05-06 17:09 | 52.25802 | -13.69024 | 34012 ft | 474 kts | 290° |
| 2026-05-06 17:10 | 52.27756 | -13.79267 | 34007 ft | 474 kts | 289° |
| 2026-05-06 17:10 | 52.29713 | -13.89579 | 34007 ft | 474 kts | 289° |
| 2026-05-06 17:11 | 52.31654 | -13.99863 | 34005 ft | 473 kts | 289° |
| 2026-05-06 17:11 | 52.33588 | -14.10168 | 34005 ft | 473 kts | 289° |
| 2026-05-06 17:12 | 52.35499 | -14.20402 | 34002 ft | 473 kts | 289° |
| 2026-05-06 17:12 | 52.37413 | -14.30713 | 34005 ft | 472 kts | 289° |
| 2026-05-06 17:13 | 52.39306 | -14.40969 | 34005 ft | 472 kts | 288° |
| 2026-05-06 17:13 | 52.41204 | -14.51308 | 34007 ft | 472 kts | 288° |
| 2026-05-06 17:14 | 52.43077 | -14.61569 | 34005 ft | 472 kts | 288° |
| 2026-05-06 17:14 | 52.44956 | -14.71915 | 34000 ft | 471 kts | 288° |
| 2026-05-06 17:15 | 52.46810 | -14.82188 | 33998 ft | 471 kts | 288° |
| 2026-05-06 17:15 | 52.48667 | -14.92527 | 34002 ft | 471 kts | 288° |
| 2026-05-06 17:16 | 52.50402 | -15.02845 | 33994 ft | 472 kts | 283° |
| 2026-05-06 17:16 | 52.51697 | -15.13438 | 33996 ft | 472 kts | 282° |
| 2026-05-06 17:17 | 52.52939 | -15.24058 | 33996 ft | 472 kts | 282° |
| 2026-05-06 17:17 | 52.54186 | -15.34655 | 33995 ft | 472 kts | 282° |
| 2026-05-06 17:18 | 52.55434 | -15.45197 | 33997 ft | 472 kts | 282° |
| 2026-05-06 17:18 | 52.56687 | -15.55824 | 33997 ft | 472 kts | 282° |
| 2026-05-06 17:19 | 52.57926 | -15.66422 | 33993 ft | 472 kts | 282° |
| 2026-05-06 17:19 | 52.59156 | -15.77042 | 33995 ft | 471 kts | 282° |
| 2026-05-06 17:20 | 52.60373 | -15.87628 | 33992 ft | 470 kts | 282° |
| 2026-05-06 17:20 | 52.61571 | -15.98139 | 33991 ft | 469 kts | 281° |
| 2026-05-06 17:21 | 52.62766 | -16.08711 | 33993 ft | 469 kts | 281° |
| 2026-05-06 17:21 | 52.63950 | -16.19287 | 33994 ft | 468 kts | 281° |
| 2026-05-06 17:22 | 52.65124 | -16.29848 | 33995 ft | 468 kts | 281° |
| 2026-05-06 17:22 | 52.66289 | -16.40418 | 33991 ft | 468 kts | 280° |
| 2026-05-06 17:23 | 52.67436 | -16.50924 | 33990 ft | 467 kts | 280° |
| 2026-05-06 17:23 | 52.68579 | -16.61483 | 33990 ft | 467 kts | 280° |
| 2026-05-06 17:24 | 52.69711 | -16.72034 | 33990 ft | 466 kts | 279° |
| 2026-05-06 17:24 | 52.70833 | -16.82576 | 33992 ft | 466 kts | 279° |
| 2026-05-06 17:25 | 52.71936 | -16.93036 | 33992 ft | 465 kts | 279° |
| 2026-05-06 17:25 | 52.73037 | -17.03575 | 33987 ft | 465 kts | 279° |
| 2026-05-06 17:26 | 52.74127 | -17.14107 | 33986 ft | 465 kts | 278° |
| 2026-05-06 17:26 | 52.75201 | -17.24571 | 33986 ft | 465 kts | 278° |
| 2026-05-06 17:27 | 52.76277 | -17.35142 | 33985 ft | 466 kts | 278° |
| 2026-05-06 17:27 | 52.77342 | -17.45719 | 33986 ft | 467 kts | 278° |
| 2026-05-06 17:28 | 52.78395 | -17.56263 | 33987 ft | 467 kts | 278° |
| 2026-05-06 17:28 | 52.79445 | -17.66888 | 33988 ft | 468 kts | 278° |
| 2026-05-06 17:29 | 52.80488 | -17.77533 | 33987 ft | 469 kts | 278° |
| 2026-05-06 17:29 | 52.81521 | -17.88179 | 33986 ft | 469 kts | 277° |
| 2026-05-06 17:30 | 52.82540 | -17.98783 | 33986 ft | 469 kts | 277° |
| 2026-05-06 17:30 | 52.83553 | -18.09435 | 33985 ft | 469 kts | 277° |
| 2026-05-06 17:31 | 52.84559 | -18.20119 | 33982 ft | 468 kts | 277° |
| 2026-05-06 17:31 | 52.85546 | -18.30697 | 33988 ft | 468 kts | 277° |
| 2026-05-06 17:32 | 52.86370 | -18.39616 | 33987 ft | 467 kts | 277° |
| 2026-05-06 17:32 | 52.87339 | -18.50207 | 33977 ft | 467 kts | 276° |
| 2026-05-06 17:33 | 52.88303 | -18.60851 | 33978 ft | 467 kts | 276° |
| 2026-05-06 17:33 | 52.89252 | -18.71434 | 34000 ft | 466 kts | 276° |
| 2026-05-06 17:34 | 52.90197 | -18.82081 | 33994 ft | 467 kts | 276° |
| 2026-05-06 17:34 | 52.91131 | -18.92715 | 33992 ft | 467 kts | 276° |
| 2026-05-06 17:35 | 52.92057 | -19.03379 | 33994 ft | 467 kts | 276° |
| 2026-05-06 17:35 | 52.92970 | -19.14003 | 33986 ft | 467 kts | 275° |
| 2026-05-06 17:36 | 52.94327 | -19.30009 | 33999 ft | 467 kts | 275° |
| 2026-05-06 17:36 | 52.95221 | -19.40700 | 33998 ft | 467 kts | 275° |
| 2026-05-06 17:37 | 52.96102 | -19.51346 | 33993 ft | 468 kts | 275° |
| 2026-05-06 17:37 | 52.96978 | -19.62065 | 33997 ft | 468 kts | 275° |
| 2026-05-06 17:38 | 52.97840 | -19.72722 | 33993 ft | 468 kts | 275° |
| 2026-05-06 17:38 | 52.98697 | -19.83447 | 33993 ft | 468 kts | 275° |
| 2026-05-06 17:39 | 52.99547 | -19.94189 | 33995 ft | 469 kts | 274° |
| 2026-05-06 17:39 | 53.00259 | -20.04900 | 33994 ft | 468 kts | 271° |
| 2026-05-06 17:40 | 53.00699 | -20.15708 | 33995 ft | 468 kts | 270° |
| 2026-05-06 17:40 | 53.01098 | -20.26443 | 33999 ft | 468 kts | 270° |
| 2026-05-06 17:41 | 53.01507 | -20.37257 | 33998 ft | 468 kts | 270° |
| 2026-05-06 17:41 | 53.01917 | -20.48017 | 33995 ft | 468 kts | 270° |
| 2026-05-06 17:42 | 53.02324 | -20.58823 | 33997 ft | 468 kts | 270° |
| 2026-05-06 17:42 | 53.02720 | -20.69617 | 34001 ft | 468 kts | 270° |
| 2026-05-06 17:43 | 53.03107 | -20.80443 | 34001 ft | 468 kts | 270° |
| 2026-05-06 17:43 | 53.03481 | -20.91194 | 34003 ft | 468 kts | 270° |
| 2026-05-06 17:44 | 53.03847 | -21.02001 | 34001 ft | 468 kts | 269° |
| 2026-05-06 17:44 | 53.04204 | -21.12815 | 34003 ft | 468 kts | 269° |
| 2026-05-06 17:45 | 53.04551 | -21.23638 | 34001 ft | 468 kts | 269° |
| 2026-05-06 17:45 | 53.04885 | -21.34379 | 34011 ft | 468 kts | 269° |
| 2026-05-06 17:46 | 53.05213 | -21.45210 | 34008 ft | 468 kts | 269° |
| 2026-05-06 17:46 | 53.05531 | -21.56053 | 34005 ft | 468 kts | 269° |
| 2026-05-06 17:47 | 53.05837 | -21.66822 | 34003 ft | 468 kts | 269° |
| 2026-05-06 17:47 | 53.06135 | -21.77655 | 34007 ft | 469 kts | 269° |
| 2026-05-06 17:48 | 53.06422 | -21.88443 | 34018 ft | 469 kts | 268° |
| 2026-05-06 17:48 | 53.06701 | -21.99316 | 34008 ft | 469 kts | 268° |
| 2026-05-06 17:49 | 53.06969 | -22.10107 | 34007 ft | 469 kts | 268° |
| 2026-05-06 17:49 | 53.07227 | -22.20940 | 34011 ft | 469 kts | 268° |
| 2026-05-06 17:50 | 53.07476 | -22.31805 | 34013 ft | 469 kts | 268° |
| 2026-05-06 17:50 | 53.07716 | -22.42667 | 34014 ft | 469 kts | 268° |
| 2026-05-06 17:51 | 53.07945 | -22.53532 | 34013 ft | 470 kts | 268° |
| 2026-05-06 17:51 | 53.08164 | -22.64348 | 34014 ft | 470 kts | 268° |
| 2026-05-06 17:52 | 53.08374 | -22.75204 | 34019 ft | 470 kts | 268° |
| 2026-05-06 17:52 | 53.08574 | -22.86086 | 34010 ft | 470 kts | 268° |
| 2026-05-06 17:53 | 53.08764 | -22.96952 | 34019 ft | 469 kts | 268° |
| 2026-05-06 17:53 | 53.08944 | -23.07817 | 34015 ft | 469 kts | 268° |
| 2026-05-06 17:54 | 53.09113 | -23.18609 | 34014 ft | 469 kts | 268° |
| 2026-05-06 17:54 | 53.09273 | -23.29504 | 34020 ft | 468 kts | 268° |
| 2026-05-06 17:55 | 53.09422 | -23.40243 | 34023 ft | 468 kts | 268° |
| 2026-05-06 17:55 | 53.09562 | -23.51063 | 34021 ft | 467 kts | 268° |
| 2026-05-06 17:56 | 53.09693 | -23.61947 | 34021 ft | 467 kts | 268° |
| 2026-05-06 17:56 | 53.09813 | -23.72694 | 34021 ft | 467 kts | 268° |
| 2026-05-06 17:57 | 53.09923 | -23.83503 | 34020 ft | 466 kts | 268° |
| 2026-05-06 17:57 | 53.10023 | -23.94298 | 34020 ft | 466 kts | 268° |
| 2026-05-06 17:58 | 53.10114 | -24.05053 | 34020 ft | 466 kts | 268° |
| 2026-05-06 17:58 | 53.10195 | -24.15852 | 34025 ft | 466 kts | 268° |
| 2026-05-06 17:59 | 53.10266 | -24.26659 | 34022 ft | 466 kts | 268° |
| 2026-05-06 17:59 | 53.10327 | -24.37397 | 34020 ft | 466 kts | 268° |
| 2026-05-06 18:00 | 53.10379 | -24.48196 | 34015 ft | 466 kts | 268° |
| 2026-05-06 18:00 | 53.10421 | -24.59007 | 34012 ft | 466 kts | 268° |
| 2026-05-06 18:01 | 53.10453 | -24.69810 | 34020 ft | 466 kts | 267° |
| 2026-05-06 18:01 | 53.10475 | -24.80533 | 34025 ft | 466 kts | 267° |
| 2026-05-06 18:02 | 53.10488 | -24.91329 | 34019 ft | 466 kts | 267° |
| 2026-05-06 18:02 | 53.10491 | -25.02139 | 34019 ft | 467 kts | 267° |
| 2026-05-06 18:03 | 53.10484 | -25.12974 | 34015 ft | 467 kts | 267° |
| 2026-05-06 18:03 | 53.10467 | -25.23749 | 34015 ft | 467 kts | 267° |
| 2026-05-06 18:04 | 53.10441 | -25.34576 | 34013 ft | 467 kts | 267° |
| 2026-05-06 18:04 | 53.10405 | -25.45397 | 34015 ft | 468 kts | 267° |
| 2026-05-06 18:05 | 53.10358 | -25.56257 | 34014 ft | 468 kts | 267° |
| 2026-05-06 18:05 | 53.10302 | -25.67105 | 34015 ft | 468 kts | 267° |
| 2026-05-06 18:06 | 53.10237 | -25.77883 | 34015 ft | 468 kts | 267° |
| 2026-05-06 18:06 | 53.10161 | -25.88720 | 34012 ft | 468 kts | 267° |
| 2026-05-06 18:07 | 53.10075 | -25.99553 | 34011 ft | 468 kts | 267° |
| 2026-05-06 18:07 | 53.09980 | -26.10414 | 34009 ft | 468 kts | 267° |
| 2026-05-06 18:08 | 53.09875 | -26.21188 | 34009 ft | 468 kts | 267° |
| 2026-05-06 18:08 | 53.09760 | -26.32045 | 34013 ft | 468 kts | 267° |
| 2026-05-06 18:09 | 53.09635 | -26.42877 | 34014 ft | 468 kts | 267° |
| 2026-05-06 18:09 | 53.09501 | -26.53647 | 34011 ft | 469 kts | 267° |
| 2026-05-06 18:10 | 53.09356 | -26.64514 | 34005 ft | 469 kts | 267° |
| 2026-05-06 18:10 | 53.09201 | -26.75400 | 33999 ft | 469 kts | 267° |
| 2026-05-06 18:11 | 53.09066 | -26.84362 | 34003 ft | 468 kts | 267° |
| 2026-05-06 18:11 | 53.08864 | -26.97047 | 34004 ft | 468 kts | 266° |
| 2026-05-06 18:12 | 53.08712 | -27.06008 | 34006 ft | 468 kts | 266° |
| 2026-05-06 18:12 | 53.08487 | -27.18617 | 33999 ft | 469 kts | 266° |
| 2026-05-06 18:13 | 53.08319 | -27.27635 | 33987 ft | 468 kts | 266° |
| 2026-05-06 18:13 | 53.08107 | -27.38481 | 33996 ft | 467 kts | 266° |
| 2026-05-06 18:14 | 53.07886 | -27.49318 | 33997 ft | 467 kts | 266° |
| 2026-05-06 18:14 | 53.07655 | -27.60102 | 33994 ft | 467 kts | 266° |
| 2026-05-06 18:15 | 53.07415 | -27.70845 | 33992 ft | 467 kts | 266° |
| 2026-05-06 18:15 | 53.07164 | -27.81679 | 33995 ft | 467 kts | 266° |
| 2026-05-06 18:16 | 53.06905 | -27.92442 | 33993 ft | 468 kts | 266° |
| 2026-05-06 18:16 | 53.06635 | -28.03281 | 33993 ft | 468 kts | 266° |
| 2026-05-06 18:17 | 53.06355 | -28.14067 | 33984 ft | 469 kts | 266° |
| 2026-05-06 18:17 | 53.06063 | -28.24933 | 33996 ft | 469 kts | 266° |
| 2026-05-06 18:18 | 53.05765 | -28.35708 | 33988 ft | 469 kts | 266° |
| 2026-05-06 18:18 | 53.05454 | -28.46565 | 33986 ft | 469 kts | 266° |
| 2026-05-06 18:19 | 53.05135 | -28.57360 | 33985 ft | 469 kts | 266° |
| 2026-05-06 18:19 | 53.04804 | -28.68234 | 33976 ft | 469 kts | 266° |
| 2026-05-06 18:20 | 53.04464 | -28.79087 | 33982 ft | 469 kts | 266° |
| 2026-05-06 18:20 | 53.04116 | -28.89839 | 33988 ft | 468 kts | 266° |
| 2026-05-06 18:21 | 53.03758 | -29.00642 | 33978 ft | 468 kts | 266° |
| 2026-05-06 18:21 | 53.03389 | -29.11461 | 33970 ft | 467 kts | 266° |
| 2026-05-06 18:22 | 53.03014 | -29.22159 | 33980 ft | 465 kts | 266° |
| 2026-05-06 18:22 | 53.02631 | -29.32851 | 33981 ft | 462 kts | 266° |
| 2026-05-06 18:23 | 53.02238 | -29.43524 | 33975 ft | 462 kts | 266° |
| 2026-05-06 18:23 | 53.01838 | -29.54130 | 33963 ft | 464 kts | 266° |
| 2026-05-06 18:24 | 53.01424 | -29.64838 | 33971 ft | 464 kts | 266° |
| 2026-05-06 18:24 | 53.01000 | -29.75583 | 33957 ft | 467 kts | 266° |
| 2026-05-06 18:25 | 53.00565 | -29.86360 | 33962 ft | 469 kts | 266° |
| 2026-05-06 18:25 | 53.00116 | -29.97242 | 33974 ft | 475 kts | 266° |
| 2026-05-06 18:26 | 52.99868 | -30.08228 | 33968 ft | 478 kts | 269° |
| 2026-05-06 18:26 | 52.99793 | -30.19297 | 33962 ft | 479 kts | 269° |
| 2026-05-06 18:27 | 52.99716 | -30.30370 | 33977 ft | 478 kts | 269° |
| 2026-05-06 18:27 | 52.99611 | -30.41357 | 33985 ft | 479 kts | 269° |
| 2026-05-06 18:28 | 52.99484 | -30.52455 | 33975 ft | 480 kts | 269° |
| 2026-05-06 18:28 | 52.99344 | -30.63531 | 33969 ft | 478 kts | 269° |
| 2026-05-06 18:29 | 52.99195 | -30.74580 | 33983 ft | 478 kts | 269° |
| 2026-05-06 18:29 | 52.99035 | -30.85669 | 33991 ft | 481 kts | 269° |
| 2026-05-06 18:30 | 52.98866 | -30.96737 | 33989 ft | 481 kts | 268° |
| 2026-05-06 18:30 | 52.98686 | -31.07838 | 33979 ft | 479 kts | 268° |
| 2026-05-06 18:31 | 52.98497 | -31.18871 | 33990 ft | 481 kts | 268° |
| 2026-05-06 18:31 | 52.98296 | -31.30001 | 33987 ft | 482 kts | 268° |
| 2026-05-06 18:32 | 52.98084 | -31.41126 | 33999 ft | 481 kts | 268° |
| 2026-05-06 18:32 | 52.97864 | -31.52175 | 33993 ft | 482 kts | 268° |
| 2026-05-06 18:33 | 52.97631 | -31.63300 | 34005 ft | 483 kts | 268° |
| 2026-05-06 18:33 | 52.97389 | -31.74423 | 33994 ft | 479 kts | 268° |
| 2026-05-06 18:34 | 52.97139 | -31.85372 | 33993 ft | 475 kts | 268° |
| 2026-05-06 18:34 | 52.96880 | -31.96322 | 34002 ft | 473 kts | 268° |
| 2026-05-06 18:35 | 52.96613 | -32.07223 | 34016 ft | 473 kts | 268° |
| 2026-05-06 18:35 | 52.96336 | -32.18081 | 34006 ft | 473 kts | 268° |
| 2026-05-06 18:36 | 52.96047 | -32.29017 | 34011 ft | 473 kts | 268° |
| 2026-05-06 18:36 | 52.95748 | -32.39925 | 34022 ft | 472 kts | 268° |
| 2026-05-06 18:37 | 52.95493 | -32.48974 | 34032 ft | 472 kts | 268° |
| 2026-05-06 18:37 | 52.95124 | -32.61655 | 34021 ft | 474 kts | 268° |
| 2026-05-06 18:38 | 52.94795 | -32.72582 | 34020 ft | 475 kts | 268° |
| 2026-05-06 18:38 | 52.94454 | -32.83561 | 34037 ft | 476 kts | 268° |
| 2026-05-06 18:39 | 52.94104 | -32.94558 | 34038 ft | 477 kts | 268° |
| 2026-05-06 18:40 | 52.93557 | -33.11109 | 34026 ft | 483 kts | 268° |
| 2026-05-06 18:40 | 52.93176 | -33.22198 | 34044 ft | 481 kts | 268° |
| 2026-05-06 18:41 | 52.92786 | -33.33260 | 34037 ft | 476 kts | 268° |
| 2026-05-06 18:41 | 52.92395 | -33.44041 | 34026 ft | 468 kts | 268° |
| 2026-05-06 18:42 | 52.91997 | -33.54800 | 34050 ft | 467 kts | 268° |
| 2026-05-06 18:42 | 52.91588 | -33.65591 | 34055 ft | 470 kts | 268° |
| 2026-05-06 18:43 | 52.91165 | -33.76492 | 34063 ft | 476 kts | 268° |
| 2026-05-06 18:43 | 52.90730 | -33.87422 | 34052 ft | 478 kts | 268° |
| 2026-05-06 18:44 | 52.90281 | -33.98432 | 34058 ft | 478 kts | 268° |
| 2026-05-06 18:44 | 52.89825 | -34.09369 | 34056 ft | 477 kts | 268° |
| 2026-05-06 18:45 | 52.89358 | -34.20340 | 34060 ft | 476 kts | 268° |
| 2026-05-06 18:45 | 52.88882 | -34.31270 | 34064 ft | 474 kts | 268° |
| 2026-05-06 18:46 | 52.88401 | -34.42101 | 34062 ft | 473 kts | 268° |
| 2026-05-06 18:46 | 52.87907 | -34.52973 | 34066 ft | 472 kts | 268° |
| 2026-05-06 18:47 | 52.87406 | -34.63811 | 34072 ft | 471 kts | 268° |
| 2026-05-06 18:47 | 52.86898 | -34.74564 | 34070 ft | 470 kts | 268° |
| 2026-05-06 18:48 | 52.86379 | -34.85371 | 34074 ft | 470 kts | 268° |
| 2026-05-06 18:48 | 52.85849 | -34.96173 | 34079 ft | 470 kts | 268° |
| 2026-05-06 18:49 | 52.85310 | -35.06967 | 34080 ft | 470 kts | 268° |
| 2026-05-06 18:49 | 52.84854 | -35.15945 | 34084 ft | 470 kts | 268° |
| 2026-05-06 18:50 | 52.84297 | -35.26728 | 34080 ft | 470 kts | 268° |
| 2026-05-06 18:50 | 52.83729 | -35.37523 | 34083 ft | 470 kts | 268° |
| 2026-05-06 18:51 | 52.83153 | -35.48304 | 34086 ft | 470 kts | 268° |
| 2026-05-06 18:51 | 52.82567 | -35.59077 | 34085 ft | 469 kts | 268° |
| 2026-05-06 18:52 | 52.81971 | -35.69846 | 34091 ft | 469 kts | 268° |
| 2026-05-06 18:52 | 52.81370 | -35.80530 | 34094 ft | 468 kts | 268° |
| 2026-05-06 18:53 | 52.80756 | -35.91263 | 34099 ft | 468 kts | 268° |
| 2026-05-06 18:53 | 52.80134 | -36.01974 | 34100 ft | 467 kts | 268° |
| 2026-05-06 18:54 | 52.79507 | -36.12606 | 34099 ft | 466 kts | 268° |
| 2026-05-06 18:54 | 52.78865 | -36.23332 | 34102 ft | 466 kts | 269° |
| 2026-05-06 18:55 | 52.78220 | -36.33931 | 34102 ft | 465 kts | 269° |
| 2026-05-06 18:55 | 52.77560 | -36.44632 | 34117 ft | 465 kts | 269° |
| 2026-05-06 18:56 | 52.76898 | -36.55195 | 34113 ft | 464 kts | 269° |
| 2026-05-06 18:56 | 52.76223 | -36.65810 | 34108 ft | 463 kts | 269° |
| 2026-05-06 18:57 | 52.75540 | -36.76410 | 34112 ft | 463 kts | 269° |
| 2026-05-06 18:57 | 52.74853 | -36.86920 | 34112 ft | 462 kts | 269° |
| 2026-05-06 18:58 | 52.74153 | -36.97475 | 34111 ft | 462 kts | 269° |
| 2026-05-06 18:58 | 52.73444 | -37.08034 | 34114 ft | 462 kts | 269° |
| 2026-05-06 18:59 | 52.72727 | -37.18568 | 34119 ft | 461 kts | 269° |
| 2026-05-06 18:59 | 52.72001 | -37.29088 | 34127 ft | 461 kts | 269° |
| 2026-05-06 19:00 | 52.71271 | -37.39526 | 34125 ft | 460 kts | 269° |
| 2026-05-06 19:00 | 52.70529 | -37.50005 | 34119 ft | 460 kts | 269° |
| 2026-05-06 19:01 | 52.69776 | -37.60491 | 34124 ft | 459 kts | 269° |
| 2026-05-06 19:01 | 52.69018 | -37.70943 | 34125 ft | 458 kts | 269° |
| 2026-05-06 19:02 | 52.68252 | -37.81352 | 34124 ft | 457 kts | 269° |
| 2026-05-06 19:02 | 52.67478 | -37.91757 | 34128 ft | 456 kts | 269° |
| 2026-05-06 19:03 | 52.66695 | -38.02145 | 34126 ft | 456 kts | 269° |
| 2026-05-06 19:03 | 52.65911 | -38.12437 | 34124 ft | 455 kts | 270° |
| 2026-05-06 19:04 | 52.65113 | -38.22775 | 34134 ft | 454 kts | 270° |
| 2026-05-06 19:04 | 52.64309 | -38.33080 | 34132 ft | 452 kts | 270° |
| 2026-05-06 19:05 | 52.63498 | -38.43350 | 34138 ft | 451 kts | 270° |
| 2026-05-06 19:05 | 52.62680 | -38.53605 | 34148 ft | 450 kts | 270° |
| 2026-05-06 19:06 | 52.61860 | -38.63765 | 34136 ft | 449 kts | 270° |
| 2026-05-06 19:06 | 52.61029 | -38.73956 | 34142 ft | 448 kts | 270° |
| 2026-05-06 19:07 | 52.60190 | -38.84125 | 34138 ft | 446 kts | 270° |
| 2026-05-06 19:07 | 52.59348 | -38.94225 | 34135 ft | 445 kts | 271° |
| 2026-05-06 19:08 | 52.58504 | -39.04240 | 34143 ft | 443 kts | 271° |
| 2026-05-06 19:08 | 52.57651 | -39.14259 | 34148 ft | 441 kts | 271° |
| 2026-05-06 19:09 | 52.56792 | -39.24245 | 34148 ft | 439 kts | 271° |
| 2026-05-06 19:09 | 52.55929 | -39.34181 | 34148 ft | 438 kts | 271° |
| 2026-05-06 19:10 | 52.55062 | -39.44079 | 34145 ft | 436 kts | 272° |
| 2026-05-06 19:10 | 52.54190 | -39.53926 | 34147 ft | 434 kts | 272° |
| 2026-05-06 19:11 | 52.53319 | -39.63668 | 34148 ft | 432 kts | 272° |
| 2026-05-06 19:11 | 52.52437 | -39.73437 | 34146 ft | 431 kts | 272° |
| 2026-05-06 19:12 | 52.51550 | -39.83176 | 34145 ft | 430 kts | 272° |
| 2026-05-06 19:12 | 52.50661 | -39.92871 | 34146 ft | 429 kts | 272° |
| 2026-05-06 19:13 | 52.49551 | -40.02498 | 34148 ft | 438 kts | 266° |
| 2026-05-06 19:13 | 52.47652 | -40.12167 | 34152 ft | 443 kts | 264° |
| 2026-05-06 19:14 | 52.45723 | -40.21768 | 34146 ft | 443 kts | 264° |
| 2026-05-06 19:14 | 52.43802 | -40.31380 | 34146 ft | 443 kts | 264° |
| 2026-05-06 19:15 | 52.41897 | -40.40924 | 34146 ft | 443 kts | 264° |
| 2026-05-06 19:15 | 52.39967 | -40.50564 | 34146 ft | 445 kts | 264° |
| 2026-05-06 19:16 | 52.38029 | -40.60200 | 34148 ft | 446 kts | 264° |
| 2026-05-06 19:16 | 52.36073 | -40.69871 | 34156 ft | 448 kts | 263° |
| 2026-05-06 19:17 | 52.34113 | -40.79514 | 34162 ft | 450 kts | 263° |
| 2026-05-06 19:17 | 52.32122 | -40.89262 | 34159 ft | 452 kts | 263° |
| 2026-05-06 19:18 | 52.30119 | -40.99018 | 34150 ft | 453 kts | 263° |
| 2026-05-06 19:18 | 52.28098 | -41.08811 | 34150 ft | 455 kts | 262° |
| 2026-05-06 19:19 | 52.26080 | -41.18543 | 34149 ft | 456 kts | 262° |
| 2026-05-06 19:19 | 52.24036 | -41.28350 | 34152 ft | 456 kts | 262° |
| 2026-05-06 19:20 | 52.21980 | -41.38169 | 34155 ft | 457 kts | 261° |
| 2026-05-06 19:20 | 52.19912 | -41.47998 | 34153 ft | 458 kts | 261° |
| 2026-05-06 19:21 | 52.17834 | -41.57826 | 34149 ft | 458 kts | 261° |
| 2026-05-06 19:21 | 52.15761 | -41.67586 | 34154 ft | 458 kts | 261° |
| 2026-05-06 19:22 | 52.14003 | -41.75821 | 34152 ft | 458 kts | 260° |
| 2026-05-06 19:22 | 52.11910 | -41.85587 | 34147 ft | 458 kts | 260° |
| 2026-05-06 19:23 | 52.09800 | -41.95381 | 34148 ft | 458 kts | 260° |
| 2026-05-06 19:23 | 52.07682 | -42.05170 | 34151 ft | 459 kts | 260° |
| 2026-05-06 19:24 | 52.05557 | -42.14944 | 34148 ft | 459 kts | 259° |
| 2026-05-06 19:24 | 52.03418 | -42.24738 | 34161 ft | 459 kts | 259° |
| 2026-05-06 19:25 | 52.01282 | -42.34470 | 34151 ft | 460 kts | 259° |
| 2026-05-06 19:25 | 51.99124 | -42.44254 | 34153 ft | 460 kts | 259° |
| 2026-05-06 19:26 | 51.96957 | -42.54034 | 34152 ft | 459 kts | 259° |
| 2026-05-06 19:26 | 51.94786 | -42.63782 | 34151 ft | 458 kts | 258° |
| 2026-05-06 19:27 | 51.92628 | -42.73427 | 34148 ft | 457 kts | 258° |
| 2026-05-06 19:27 | 51.90453 | -42.83105 | 34151 ft | 455 kts | 258° |
| 2026-05-06 19:28 | 51.88279 | -42.92735 | 34154 ft | 453 kts | 258° |
| 2026-05-06 19:28 | 51.86118 | -43.02264 | 34141 ft | 451 kts | 258° |
| 2026-05-06 19:29 | 51.83949 | -43.11782 | 34146 ft | 449 kts | 257° |
| 2026-05-06 19:29 | 51.81784 | -43.21246 | 34145 ft | 447 kts | 257° |
| 2026-05-06 19:30 | 51.79622 | -43.30657 | 34145 ft | 446 kts | 257° |
| 2026-05-06 19:30 | 51.77455 | -43.40042 | 34138 ft | 444 kts | 257° |
| 2026-05-06 19:31 | 51.75305 | -43.49319 | 34146 ft | 443 kts | 257° |
| 2026-05-06 19:31 | 51.72050 | -43.63287 | 34139 ft | 442 kts | 256° |
| 2026-05-06 19:32 | 51.69868 | -43.72596 | 34146 ft | 442 kts | 256° |
| 2026-05-06 19:32 | 51.67695 | -43.81830 | 34141 ft | 442 kts | 256° |
| 2026-05-06 19:33 | 51.65499 | -43.91118 | 34137 ft | 443 kts | 256° |
| 2026-05-06 19:33 | 51.63302 | -44.00371 | 34136 ft | 443 kts | 256° |
| 2026-05-06 19:34 | 51.61096 | -44.09621 | 34139 ft | 443 kts | 256° |
| 2026-05-06 19:34 | 51.58873 | -44.18906 | 34134 ft | 444 kts | 255° |
| 2026-05-06 19:35 | 51.56641 | -44.28184 | 34133 ft | 444 kts | 255° |
| 2026-05-06 19:35 | 51.54404 | -44.37448 | 34132 ft | 444 kts | 255° |
| 2026-05-06 19:36 | 51.52165 | -44.46676 | 34133 ft | 444 kts | 255° |
| 2026-05-06 19:36 | 51.49912 | -44.55929 | 34126 ft | 444 kts | 255° |
| 2026-05-06 19:37 | 51.47653 | -44.65164 | 34128 ft | 444 kts | 254° |
| 2026-05-06 19:37 | 51.45766 | -44.72846 | 34128 ft | 444 kts | 254° |
| 2026-05-06 19:38 | 51.43107 | -44.83631 | 34129 ft | 444 kts | 254° |
| 2026-05-06 19:38 | 51.40839 | -44.92789 | 34126 ft | 444 kts | 253° |
| 2026-05-06 19:39 | 51.38549 | -45.01995 | 34126 ft | 444 kts | 253° |
| 2026-05-06 19:39 | 51.36261 | -45.11156 | 34126 ft | 444 kts | 253° |
| 2026-05-06 19:40 | 51.33959 | -45.20336 | 34123 ft | 444 kts | 253° |
| 2026-05-06 19:40 | 51.31634 | -45.29569 | 34120 ft | 444 kts | 253° |
| 2026-05-06 19:41 | 51.29335 | -45.38661 | 34119 ft | 443 kts | 252° |
| 2026-05-06 19:41 | 51.27016 | -45.47795 | 34122 ft | 443 kts | 252° |
| 2026-05-06 19:42 | 51.24689 | -45.56925 | 34117 ft | 443 kts | 252° |
| 2026-05-06 19:42 | 51.22372 | -45.65977 | 34119 ft | 442 kts | 252° |
| 2026-05-06 19:43 | 51.20034 | -45.75076 | 34118 ft | 442 kts | 252° |
| 2026-05-06 19:43 | 51.17690 | -45.84158 | 34117 ft | 441 kts | 251° |
| 2026-05-06 19:44 | 51.15347 | -45.93204 | 34123 ft | 441 kts | 251° |
| 2026-05-06 19:44 | 51.13010 | -46.02188 | 34111 ft | 441 kts | 251° |
| 2026-05-06 19:45 | 51.10656 | -46.11207 | 34106 ft | 441 kts | 251° |
| 2026-05-06 19:45 | 51.08293 | -46.20220 | 34117 ft | 440 kts | 251° |
| 2026-05-06 19:46 | 51.05926 | -46.29214 | 34113 ft | 440 kts | 251° |
| 2026-05-06 19:46 | 51.03547 | -46.38215 | 34116 ft | 440 kts | 250° |
| 2026-05-06 19:47 | 51.01165 | -46.47195 | 34114 ft | 440 kts | 250° |
| 2026-05-06 19:47 | 50.98789 | -46.56119 | 34114 ft | 440 kts | 250° |
| 2026-05-06 19:48 | 50.96399 | -46.65058 | 34115 ft | 440 kts | 250° |
| 2026-05-06 19:48 | 50.93996 | -46.74011 | 34119 ft | 440 kts | 250° |
| 2026-05-06 19:49 | 50.91592 | -46.82933 | 34116 ft | 439 kts | 250° |
| 2026-05-06 19:49 | 50.89196 | -46.91793 | 34122 ft | 439 kts | 250° |
| 2026-05-06 19:50 | 50.86782 | -47.00685 | 34116 ft | 439 kts | 249° |
| 2026-05-06 19:50 | 50.84365 | -47.09555 | 34118 ft | 438 kts | 249° |
| 2026-05-06 19:51 | 50.81942 | -47.18412 | 34116 ft | 438 kts | 249° |
| 2026-05-06 19:51 | 50.79528 | -47.27202 | 34119 ft | 438 kts | 249° |
| 2026-05-06 19:52 | 50.77093 | -47.36034 | 34119 ft | 438 kts | 249° |
| 2026-05-06 19:52 | 50.74651 | -47.44861 | 34121 ft | 438 kts | 249° |
| 2026-05-06 19:53 | 50.72204 | -47.53671 | 34116 ft | 438 kts | 248° |
| 2026-05-06 19:53 | 50.70165 | -47.60987 | 34120 ft | 438 kts | 248° |
| 2026-05-06 19:54 | 50.67700 | -47.69801 | 34119 ft | 438 kts | 248° |
| 2026-05-06 19:54 | 50.65233 | -47.78591 | 34119 ft | 438 kts | 248° |
| 2026-05-06 19:55 | 50.62754 | -47.87388 | 34120 ft | 438 kts | 248° |
| 2026-05-06 19:55 | 50.60284 | -47.96121 | 34118 ft | 439 kts | 248° |
| 2026-05-06 19:56 | 50.57790 | -48.04908 | 34112 ft | 439 kts | 248° |
| 2026-05-06 19:56 | 50.55293 | -48.13675 | 34117 ft | 439 kts | 248° |
| 2026-05-06 19:57 | 50.52795 | -48.22410 | 34120 ft | 439 kts | 247° |
| 2026-05-06 19:57 | 50.50274 | -48.31194 | 34118 ft | 439 kts | 247° |
| 2026-05-06 19:58 | 50.47763 | -48.39908 | 34111 ft | 440 kts | 247° |
| 2026-05-06 19:58 | 50.45230 | -48.48672 | 34116 ft | 440 kts | 247° |
| 2026-05-06 19:59 | 50.42686 | -48.57438 | 34125 ft | 440 kts | 246° |
| 2026-05-06 19:59 | 50.40147 | -48.66157 | 34118 ft | 441 kts | 246° |
| 2026-05-06 20:00 | 50.37599 | -48.74872 | 34120 ft | 441 kts | 246° |
| 2026-05-06 20:00 | 50.35022 | -48.83658 | 34112 ft | 441 kts | 246° |
| 2026-05-06 20:01 | 50.32463 | -48.92349 | 34118 ft | 442 kts | 246° |
| 2026-05-06 20:01 | 50.29880 | -49.01091 | 34124 ft | 442 kts | 246° |
| 2026-05-06 20:02 | 50.27288 | -49.09829 | 34117 ft | 443 kts | 246° |
| 2026-05-06 20:02 | 50.24699 | -49.18529 | 34114 ft | 443 kts | 246° |
| 2026-05-06 20:03 | 50.22090 | -49.27263 | 34118 ft | 444 kts | 246° |
| 2026-05-06 20:03 | 50.19465 | -49.36018 | 34117 ft | 444 kts | 246° |
| 2026-05-06 20:04 | 50.16837 | -49.44752 | 34115 ft | 444 kts | 245° |
| 2026-05-06 20:04 | 50.14212 | -49.53447 | 34123 ft | 445 kts | 245° |
| 2026-05-06 20:05 | 50.11570 | -49.62168 | 34116 ft | 445 kts | 245° |
| 2026-05-06 20:05 | 50.08915 | -49.70898 | 34116 ft | 445 kts | 245° |
| 2026-05-06 20:06 | 50.06258 | -49.79604 | 34120 ft | 445 kts | 245° |
| 2026-05-06 20:06 | 50.03595 | -49.88304 | 34115 ft | 445 kts | 245° |
| 2026-05-06 20:07 | 50.00932 | -49.96972 | 34123 ft | 445 kts | 245° |
| 2026-05-06 20:07 | 49.98548 | -50.05856 | 34113 ft | 444 kts | 250° |
| 2026-05-06 20:08 | 49.96410 | -50.14859 | 34117 ft | 444 kts | 250° |
| 2026-05-06 20:08 | 49.94252 | -50.23883 | 34112 ft | 444 kts | 250° |
| 2026-05-06 20:09 | 49.92096 | -50.32813 | 34110 ft | 444 kts | 250° |
| 2026-05-06 20:09 | 49.89911 | -50.41807 | 34118 ft | 444 kts | 250° |
| 2026-05-06 20:10 | 49.87719 | -50.50788 | 34116 ft | 444 kts | 250° |
| 2026-05-06 20:10 | 49.85533 | -50.59710 | 34194 ft | 447 kts | 250° |
| 2026-05-06 20:11 | 49.84428 | -50.64207 | 34547 ft | 445 kts | 250° |
| 2026-05-06 20:11 | 49.83325 | -50.68686 | 34954 ft | 443 kts | 250° |
| 2026-05-06 20:11 | 49.82232 | -50.73116 | 35370 ft | 440 kts | 250° |
| 2026-05-06 20:11 | 49.81138 | -50.77539 | 35759 ft | 438 kts | 250° |
| 2026-05-06 20:12 | 49.80048 | -50.81942 | 36038 ft | 437 kts | 250° |
| 2026-05-06 20:12 | 49.78950 | -50.86365 | 36066 ft | 440 kts | 250° |
| 2026-05-06 20:12 | 49.76752 | -50.95200 | 36103 ft | 438 kts | 250° |
| 2026-05-06 20:13 | 49.74559 | -51.03975 | 36118 ft | 436 kts | 250° |
| 2026-05-06 20:13 | 49.72373 | -51.12686 | 36121 ft | 435 kts | 250° |
| 2026-05-06 20:14 | 49.70176 | -51.21408 | 36122 ft | 434 kts | 250° |
| 2026-05-06 20:14 | 49.67971 | -51.30132 | 36103 ft | 435 kts | 250° |
| 2026-05-06 20:15 | 49.65767 | -51.38813 | 36106 ft | 435 kts | 250° |
| 2026-05-06 20:15 | 49.63561 | -51.47475 | 36104 ft | 436 kts | 250° |
| 2026-05-06 20:16 | 49.61324 | -51.56219 | 36101 ft | 437 kts | 250° |
| 2026-05-06 20:16 | 49.59080 | -51.64963 | 36102 ft | 438 kts | 250° |
| 2026-05-06 20:17 | 49.56827 | -51.73703 | 36118 ft | 439 kts | 250° |
| 2026-05-06 20:17 | 49.54562 | -51.82461 | 36115 ft | 439 kts | 250° |
| 2026-05-06 20:18 | 49.52290 | -51.91213 | 36094 ft | 440 kts | 250° |
| 2026-05-06 20:18 | 49.50523 | -52.00134 | 36111 ft | 438 kts | 259° |
| 2026-05-06 20:19 | 49.49724 | -52.09427 | 36100 ft | 437 kts | 268° |
| 2026-05-06 20:19 | 49.49514 | -52.18780 | 36093 ft | 437 kts | 268° |
| 2026-05-06 20:20 | 49.49337 | -52.28152 | 36093 ft | 437 kts | 268° |
| 2026-05-06 20:20 | 49.49138 | -52.37449 | 36087 ft | 437 kts | 268° |
| 2026-05-06 20:21 | 49.48915 | -52.46784 | 36091 ft | 436 kts | 268° |
| 2026-05-06 20:21 | 49.48679 | -52.56126 | 36081 ft | 436 kts | 268° |
| 2026-05-06 20:22 | 49.48435 | -52.65433 | 36074 ft | 435 kts | 268° |
| 2026-05-06 20:22 | 49.48183 | -52.74746 | 36076 ft | 434 kts | 268° |
| 2026-05-06 20:23 | 49.47926 | -52.84031 | 36072 ft | 434 kts | 268° |
| 2026-05-06 20:23 | 49.47662 | -52.93257 | 36071 ft | 433 kts | 268° |
| 2026-05-06 20:24 | 49.47390 | -53.02545 | 36068 ft | 433 kts | 268° |
| 2026-05-06 20:24 | 49.47110 | -53.11817 | 36064 ft | 433 kts | 268° |
| 2026-05-06 20:25 | 49.46824 | -53.21079 | 36065 ft | 433 kts | 268° |
| 2026-05-06 20:25 | 49.46529 | -53.30343 | 36059 ft | 433 kts | 268° |
| 2026-05-06 20:26 | 49.46230 | -53.39550 | 36057 ft | 433 kts | 268° |
| 2026-05-06 20:26 | 49.45921 | -53.48817 | 36057 ft | 433 kts | 268° |
| 2026-05-06 20:27 | 49.45658 | -53.56512 | 36056 ft | 433 kts | 268° |
| 2026-05-06 20:27 | 49.45335 | -53.65795 | 36056 ft | 433 kts | 267° |
| 2026-05-06 20:28 | 49.45007 | -53.74995 | 36048 ft | 433 kts | 267° |
| 2026-05-06 20:28 | 49.44670 | -53.84265 | 36051 ft | 433 kts | 267° |
| 2026-05-06 20:29 | 49.44327 | -53.93459 | 36047 ft | 432 kts | 267° |
| 2026-05-06 20:29 | 49.43976 | -54.02688 | 36048 ft | 432 kts | 267° |
| 2026-05-06 20:30 | 49.43436 | -54.16521 | 36053 ft | 431 kts | 267° |
| 2026-05-06 20:31 | 49.43070 | -54.25671 | 36050 ft | 431 kts | 267° |
| 2026-05-06 20:31 | 49.42695 | -54.34862 | 36051 ft | 430 kts | 267° |
| 2026-05-06 20:32 | 49.42315 | -54.43996 | 36046 ft | 430 kts | 267° |
| 2026-05-06 20:32 | 49.41925 | -54.53190 | 36049 ft | 429 kts | 267° |
| 2026-05-06 20:33 | 49.41529 | -54.62344 | 36052 ft | 429 kts | 267° |
| 2026-05-06 20:33 | 49.41125 | -54.71513 | 36045 ft | 429 kts | 267° |
| 2026-05-06 20:34 | 49.40715 | -54.80673 | 36052 ft | 430 kts | 266° |
| 2026-05-06 20:34 | 49.40297 | -54.89836 | 36046 ft | 430 kts | 266° |
| 2026-05-06 20:35 | 49.39874 | -54.98955 | 36045 ft | 430 kts | 266° |
| 2026-05-06 20:35 | 49.39440 | -55.08151 | 36046 ft | 431 kts | 266° |
| 2026-05-06 20:36 | 49.38999 | -55.17341 | 36050 ft | 431 kts | 266° |
| 2026-05-06 20:36 | 49.38550 | -55.26537 | 36048 ft | 432 kts | 266° |
| 2026-05-06 20:37 | 49.38095 | -55.35707 | 36043 ft | 432 kts | 266° |
| 2026-05-06 20:37 | 49.37630 | -55.44935 | 36042 ft | 433 kts | 266° |
| 2026-05-06 20:38 | 49.37157 | -55.54166 | 36041 ft | 433 kts | 266° |
| 2026-05-06 20:38 | 49.36677 | -55.63395 | 36043 ft | 433 kts | 266° |
| 2026-05-06 20:39 | 49.36192 | -55.72574 | 36045 ft | 433 kts | 266° |
| 2026-05-06 20:39 | 49.35697 | -55.81807 | 36042 ft | 433 kts | 266° |
| 2026-05-06 20:40 | 49.35197 | -55.90989 | 36045 ft | 433 kts | 266° |
| 2026-05-06 20:40 | 49.34687 | -56.00214 | 36046 ft | 433 kts | 265° |
| 2026-05-06 20:41 | 49.34169 | -56.09454 | 36044 ft | 433 kts | 265° |
| 2026-05-06 20:41 | 49.33649 | -56.18610 | 36040 ft | 433 kts | 265° |
| 2026-05-06 20:42 | 49.33117 | -56.27835 | 36041 ft | 433 kts | 265° |
| 2026-05-06 20:42 | 49.32582 | -56.36987 | 36041 ft | 432 kts | 265° |
| 2026-05-06 20:43 | 49.32037 | -56.46175 | 36044 ft | 432 kts | 265° |
| 2026-05-06 20:43 | 49.31485 | -56.55361 | 36045 ft | 432 kts | 265° |
| 2026-05-06 20:44 | 49.30930 | -56.64487 | 36039 ft | 432 kts | 265° |
| 2026-05-06 20:44 | 49.30365 | -56.73648 | 36037 ft | 431 kts | 265° |
| 2026-05-06 20:45 | 49.29792 | -56.82809 | 36039 ft | 431 kts | 265° |
| 2026-05-06 20:45 | 49.29213 | -56.91967 | 36041 ft | 431 kts | 265° |
| 2026-05-06 20:46 | 49.28630 | -57.01067 | 36046 ft | 431 kts | 264° |
| 2026-05-06 20:46 | 49.28036 | -57.10208 | 36046 ft | 430 kts | 264° |
| 2026-05-06 20:47 | 49.27435 | -57.19357 | 36054 ft | 430 kts | 264° |
| 2026-05-06 20:47 | 49.26831 | -57.28435 | 36051 ft | 431 kts | 264° |
| 2026-05-06 20:48 | 49.26215 | -57.37587 | 36047 ft | 431 kts | 264° |
| 2026-05-06 20:48 | 49.25593 | -57.46724 | 36039 ft | 430 kts | 264° |
| 2026-05-06 20:49 | 49.24969 | -57.55784 | 36052 ft | 429 kts | 264° |
| 2026-05-06 20:49 | 49.24335 | -57.64871 | 36038 ft | 429 kts | 264° |
| 2026-05-06 20:50 | 49.23694 | -57.73959 | 36038 ft | 429 kts | 263° |
| 2026-05-06 20:50 | 49.23046 | -57.83047 | 36037 ft | 428 kts | 263° |
| 2026-05-06 20:51 | 49.22393 | -57.92103 | 36030 ft | 427 kts | 263° |
| 2026-05-06 20:51 | 49.21736 | -58.01114 | 36018 ft | 425 kts | 263° |
| 2026-05-06 20:52 | 49.21073 | -58.10109 | 36016 ft | 424 kts | 263° |
| 2026-05-06 20:52 | 49.20408 | -58.19028 | 36023 ft | 423 kts | 263° |
| 2026-05-06 20:53 | 49.19735 | -58.27961 | 36016 ft | 421 kts | 263° |
| 2026-05-06 20:53 | 49.19063 | -58.36800 | 36008 ft | 421 kts | 263° |
| 2026-05-06 20:54 | 49.18379 | -58.45697 | 36011 ft | 420 kts | 263° |
| 2026-05-06 20:54 | 49.17690 | -58.54571 | 36002 ft | 419 kts | 263° |
| 2026-05-06 20:55 | 49.16997 | -58.63405 | 35988 ft | 417 kts | 263° |
| 2026-05-06 20:55 | 49.16303 | -58.72164 | 35993 ft | 416 kts | 263° |
| 2026-05-06 20:56 | 49.15602 | -58.80922 | 35989 ft | 415 kts | 263° |
| 2026-05-06 20:56 | 49.14893 | -58.89697 | 35989 ft | 414 kts | 263° |
| 2026-05-06 20:57 | 49.14183 | -58.98398 | 35983 ft | 414 kts | 263° |
| 2026-05-06 20:57 | 49.13465 | -59.07121 | 35984 ft | 414 kts | 262° |
| 2026-05-06 20:58 | 49.12738 | -59.15867 | 35979 ft | 414 kts | 262° |
| 2026-05-06 20:58 | 49.12006 | -59.24591 | 35980 ft | 414 kts | 262° |
| 2026-05-06 20:59 | 49.11393 | -59.31836 | 35977 ft | 414 kts | 262° |
| 2026-05-06 20:59 | 49.10527 | -59.41975 | 35976 ft | 413 kts | 262° |
| 2026-05-06 21:00 | 49.09780 | -59.50645 | 35971 ft | 413 kts | 262° |
| 2026-05-06 21:00 | 49.09021 | -59.59368 | 35973 ft | 413 kts | 262° |
| 2026-05-06 21:01 | 49.08386 | -59.66604 | 35970 ft | 412 kts | 262° |
| 2026-05-06 21:01 | 49.07619 | -59.75280 | 35966 ft | 412 kts | 262° |
| 2026-05-06 21:02 | 49.06850 | -59.83892 | 35966 ft | 411 kts | 262° |
| 2026-05-06 21:02 | 49.06073 | -59.92535 | 35962 ft | 411 kts | 261° |
| 2026-05-06 21:03 | 49.05289 | -60.01172 | 35958 ft | 410 kts | 261° |
| 2026-05-06 21:03 | 49.04503 | -60.09757 | 35955 ft | 410 kts | 261° |
| 2026-05-06 21:04 | 49.03706 | -60.18393 | 35950 ft | 410 kts | 261° |
| 2026-05-06 21:04 | 49.02904 | -60.27003 | 35948 ft | 409 kts | 261° |
| 2026-05-06 21:05 | 49.02103 | -60.35541 | 35954 ft | 408 kts | 261° |
| 2026-05-06 21:05 | 49.01291 | -60.44127 | 35943 ft | 408 kts | 260° |
| 2026-05-06 21:06 | 49.00480 | -60.52622 | 35937 ft | 407 kts | 260° |
| 2026-05-06 21:06 | 48.99659 | -60.61169 | 35941 ft | 407 kts | 260° |
| 2026-05-06 21:07 | 48.98831 | -60.69704 | 35937 ft | 407 kts | 260° |
| 2026-05-06 21:07 | 48.97996 | -60.78256 | 35927 ft | 407 kts | 260° |
| 2026-05-06 21:08 | 48.97159 | -60.86753 | 35930 ft | 407 kts | 259° |
| 2026-05-06 21:08 | 48.96311 | -60.95298 | 35924 ft | 408 kts | 259° |
| 2026-05-06 21:09 | 48.95456 | -61.03845 | 35924 ft | 408 kts | 259° |
| 2026-05-06 21:09 | 48.94599 | -61.12345 | 35933 ft | 408 kts | 259° |
| 2026-05-06 21:10 | 48.93732 | -61.20884 | 35930 ft | 408 kts | 259° |
| 2026-05-06 21:10 | 48.92858 | -61.29425 | 35918 ft | 408 kts | 259° |
| 2026-05-06 21:11 | 48.91977 | -61.37976 | 35919 ft | 408 kts | 259° |
| 2026-05-06 21:11 | 48.91090 | -61.46517 | 35910 ft | 408 kts | 258° |
| 2026-05-06 21:12 | 48.90196 | -61.55058 | 35913 ft | 408 kts | 258° |
| 2026-05-06 21:12 | 48.89295 | -61.63604 | 35914 ft | 408 kts | 258° |
| 2026-05-06 21:13 | 48.88395 | -61.72079 | 35912 ft | 408 kts | 258° |
| 2026-05-06 21:13 | 48.87481 | -61.80622 | 35910 ft | 409 kts | 258° |
| 2026-05-06 21:14 | 48.86561 | -61.89158 | 35908 ft | 408 kts | 258° |
| 2026-05-06 21:14 | 48.85641 | -61.97635 | 35905 ft | 408 kts | 258° |
| 2026-05-06 21:15 | 48.84710 | -62.06155 | 35902 ft | 408 kts | 258° |
| 2026-05-06 21:15 | 48.83772 | -62.14674 | 35894 ft | 408 kts | 257° |
| 2026-05-06 21:16 | 48.82835 | -62.23129 | 35895 ft | 408 kts | 257° |
| 2026-05-06 21:16 | 48.81884 | -62.31641 | 35894 ft | 407 kts | 257° |
| 2026-05-06 21:17 | 48.80930 | -62.40123 | 35895 ft | 408 kts | 257° |
| 2026-05-06 21:17 | 48.79975 | -62.48565 | 35892 ft | 407 kts | 257° |
| 2026-05-06 21:18 | 48.79009 | -62.57048 | 35892 ft | 407 kts | 257° |
| 2026-05-06 21:18 | 48.78035 | -62.65535 | 35885 ft | 407 kts | 257° |
| 2026-05-06 21:19 | 48.77064 | -62.73938 | 35880 ft | 407 kts | 257° |
| 2026-05-06 21:19 | 48.76082 | -62.82386 | 35888 ft | 406 kts | 257° |
| 2026-05-06 21:20 | 48.75092 | -62.90837 | 35878 ft | 406 kts | 256° |
| 2026-05-06 21:20 | 48.74102 | -62.99236 | 35883 ft | 406 kts | 256° |
| 2026-05-06 21:21 | 48.73100 | -63.07684 | 35876 ft | 405 kts | 256° |
| 2026-05-06 21:21 | 48.72101 | -63.16053 | 35873 ft | 405 kts | 256° |
| 2026-05-06 21:22 | 48.71089 | -63.24473 | 35869 ft | 405 kts | 256° |
| 2026-05-06 21:22 | 48.70074 | -63.32872 | 35871 ft | 405 kts | 256° |
| 2026-05-06 21:23 | 48.69061 | -63.41194 | 35867 ft | 405 kts | 256° |
| 2026-05-06 21:23 | 48.68033 | -63.49582 | 35864 ft | 404 kts | 256° |
| 2026-05-06 21:24 | 48.67000 | -63.57966 | 35864 ft | 404 kts | 256° |
| 2026-05-06 21:24 | 48.65962 | -63.66337 | 35862 ft | 404 kts | 256° |
| 2026-05-06 21:25 | 48.64924 | -63.74650 | 35861 ft | 404 kts | 255° |
| 2026-05-06 21:25 | 48.63874 | -63.83011 | 35860 ft | 404 kts | 255° |
| 2026-05-06 21:26 | 48.62817 | -63.91380 | 35852 ft | 404 kts | 255° |
| 2026-05-06 21:26 | 48.61756 | -63.99720 | 35855 ft | 403 kts | 255° |
| 2026-05-06 21:27 | 48.60691 | -64.08050 | 35854 ft | 403 kts | 255° |
| 2026-05-06 21:27 | 48.59625 | -64.16331 | 35856 ft | 403 kts | 255° |
| 2026-05-06 21:28 | 48.58544 | -64.24678 | 35855 ft | 403 kts | 255° |
| 2026-05-06 21:28 | 48.57461 | -64.32994 | 35851 ft | 403 kts | 255° |
| 2026-05-06 21:29 | 48.56376 | -64.41280 | 35852 ft | 403 kts | 255° |
| 2026-05-06 21:29 | 48.55279 | -64.49600 | 35852 ft | 403 kts | 255° |
| 2026-05-06 21:30 | 48.54177 | -64.57911 | 35856 ft | 404 kts | 254° |
| 2026-05-06 21:30 | 48.53073 | -64.66194 | 35850 ft | 404 kts | 254° |
| 2026-05-06 21:31 | 48.51957 | -64.74516 | 35857 ft | 404 kts | 254° |
| 2026-05-06 21:31 | 48.50832 | -64.82856 | 35852 ft | 404 kts | 254° |
| 2026-05-06 21:32 | 48.49892 | -64.89783 | 35856 ft | 405 kts | 254° |
| 2026-05-06 21:32 | 48.48001 | -65.03629 | 35863 ft | 406 kts | 254° |
| 2026-05-06 21:33 | 48.47045 | -65.10579 | 35849 ft | 407 kts | 253° |
| 2026-05-06 21:33 | 48.45887 | -65.18953 | 35853 ft | 406 kts | 253° |
| 2026-05-06 21:34 | 48.44733 | -65.27248 | 35852 ft | 406 kts | 253° |
| 2026-05-06 21:34 | 48.43566 | -65.35591 | 35849 ft | 406 kts | 253° |
| 2026-05-06 21:35 | 48.42393 | -65.43932 | 35852 ft | 406 kts | 253° |
| 2026-05-06 21:35 | 48.41221 | -65.52222 | 35854 ft | 406 kts | 253° |
| 2026-05-06 21:36 | 48.40036 | -65.60556 | 35850 ft | 406 kts | 253° |
| 2026-05-06 21:36 | 48.38844 | -65.68889 | 35861 ft | 406 kts | 253° |
| 2026-05-06 21:37 | 48.37651 | -65.77185 | 35850 ft | 407 kts | 253° |
| 2026-05-06 21:37 | 48.36446 | -65.85514 | 35854 ft | 406 kts | 253° |
| 2026-05-06 21:38 | 48.35236 | -65.93839 | 35855 ft | 407 kts | 253° |
| 2026-05-06 21:38 | 48.34022 | -66.02153 | 35846 ft | 406 kts | 252° |
| 2026-05-06 21:39 | 48.32811 | -66.10396 | 35850 ft | 406 kts | 252° |
| 2026-05-06 21:39 | 48.31582 | -66.18702 | 35850 ft | 406 kts | 252° |
| 2026-05-06 21:40 | 48.30349 | -66.27005 | 35848 ft | 406 kts | 252° |
| 2026-05-06 21:40 | 48.29118 | -66.35245 | 35844 ft | 407 kts | 252° |
| 2026-05-06 21:41 | 48.27872 | -66.43547 | 35853 ft | 407 kts | 252° |
| 2026-05-06 21:41 | 48.26618 | -66.51857 | 35850 ft | 407 kts | 252° |
| 2026-05-06 21:42 | 48.25364 | -66.60127 | 35845 ft | 408 kts | 252° |
| 2026-05-06 21:42 | 48.24096 | -66.68443 | 35840 ft | 408 kts | 252° |
| 2026-05-06 21:43 | 48.22830 | -66.76699 | 35827 ft | 408 kts | 252° |
| 2026-05-06 21:43 | 48.21552 | -66.84994 | 35847 ft | 408 kts | 252° |
| 2026-05-06 21:44 | 48.20267 | -66.93296 | 35849 ft | 408 kts | 252° |
| 2026-05-06 21:44 | 48.18975 | -67.01591 | 35841 ft | 409 kts | 251° |
| 2026-05-06 21:45 | 48.17680 | -67.09869 | 35842 ft | 409 kts | 251° |
| 2026-05-06 21:45 | 48.16375 | -67.18167 | 35845 ft | 410 kts | 251° |
| 2026-05-06 21:46 | 48.15049 | -67.26555 | 35851 ft | 410 kts | 251° |
| 2026-05-06 21:46 | 48.13731 | -67.34853 | 35839 ft | 411 kts | 251° |
| 2026-05-06 21:47 | 48.12400 | -67.43187 | 35841 ft | 411 kts | 251° |
| 2026-05-06 21:47 | 48.11070 | -67.51468 | 35842 ft | 412 kts | 251° |
| 2026-05-06 21:48 | 48.09719 | -67.59846 | 35845 ft | 412 kts | 251° |
| 2026-05-06 21:48 | 48.08360 | -67.68229 | 35840 ft | 413 kts | 251° |
| 2026-05-06 21:49 | 48.06999 | -67.76586 | 35841 ft | 413 kts | 251° |
| 2026-05-06 21:49 | 48.05644 | -67.84865 | 35846 ft | 413 kts | 251° |
| 2026-05-06 21:50 | 48.04263 | -67.93257 | 35848 ft | 413 kts | 251° |
| 2026-05-06 21:50 | 48.02890 | -68.01561 | 35846 ft | 414 kts | 251° |
| 2026-05-06 21:51 | 48.01502 | -68.09915 | 35846 ft | 413 kts | 251° |
| 2026-05-06 21:51 | 48.00105 | -68.18280 | 35854 ft | 413 kts | 251° |
| 2026-05-06 21:52 | 47.98715 | -68.26563 | 35861 ft | 413 kts | 250° |
| 2026-05-06 21:52 | 47.97312 | -68.34890 | 35853 ft | 414 kts | 250° |
| 2026-05-06 21:53 | 47.95899 | -68.43228 | 35855 ft | 414 kts | 250° |
| 2026-05-06 21:53 | 47.94480 | -68.51565 | 35854 ft | 414 kts | 250° |
| 2026-05-06 21:54 | 47.93058 | -68.59880 | 35857 ft | 414 kts | 250° |
| 2026-05-06 21:54 | 47.91625 | -68.68215 | 35851 ft | 414 kts | 250° |
| 2026-05-06 21:55 | 47.90192 | -68.76513 | 35838 ft | 414 kts | 250° |
| 2026-05-06 21:55 | 47.88748 | -68.84837 | 35845 ft | 415 kts | 250° |
| 2026-05-06 21:56 | 47.87294 | -68.93178 | 35845 ft | 415 kts | 250° |
| 2026-05-06 21:56 | 47.85838 | -69.01496 | 35847 ft | 415 kts | 250° |
| 2026-05-06 21:57 | 47.84375 | -69.09809 | 35851 ft | 415 kts | 250° |
| 2026-05-06 21:57 | 47.82904 | -69.18126 | 35842 ft | 415 kts | 250° |
| 2026-05-06 21:58 | 47.81428 | -69.26436 | 35847 ft | 416 kts | 250° |
| 2026-05-06 21:58 | 47.79949 | -69.34728 | 35844 ft | 416 kts | 249° |
| 2026-05-06 21:59 | 47.78458 | -69.43050 | 35848 ft | 416 kts | 249° |
| 2026-05-06 21:59 | 47.76957 | -69.51395 | 35843 ft | 416 kts | 249° |
| 2026-05-06 22:00 | 47.75396 | -69.59686 | 35844 ft | 414 kts | 246° |
| 2026-05-06 22:00 | 47.73336 | -69.67612 | 35839 ft | 412 kts | 244° |
| 2026-05-06 22:01 | 47.71232 | -69.75536 | 35843 ft | 413 kts | 244° |
| 2026-05-06 22:01 | 47.69123 | -69.83488 | 35847 ft | 414 kts | 244° |
| 2026-05-06 22:02 | 47.67011 | -69.91449 | 35837 ft | 415 kts | 244° |
| 2026-05-06 22:02 | 47.64895 | -69.99408 | 35840 ft | 415 kts | 244° |
| 2026-05-06 22:03 | 47.62769 | -70.07374 | 35840 ft | 415 kts | 244° |
| 2026-05-06 22:03 | 47.60642 | -70.15323 | 35837 ft | 415 kts | 244° |
| 2026-05-06 22:04 | 47.58504 | -70.23280 | 35842 ft | 415 kts | 244° |
| 2026-05-06 22:04 | 47.56720 | -70.29896 | 35833 ft | 415 kts | 244° |
| 2026-05-06 22:05 | 47.54562 | -70.37882 | 35848 ft | 415 kts | 244° |
| 2026-05-06 22:05 | 47.52411 | -70.45808 | 35836 ft | 416 kts | 244° |
| 2026-05-06 22:06 | 47.50245 | -70.53765 | 35835 ft | 416 kts | 245° |
| 2026-05-06 22:06 | 47.48087 | -70.61671 | 35830 ft | 416 kts | 245° |
| 2026-05-06 22:07 | 47.45912 | -70.69607 | 35831 ft | 416 kts | 245° |
| 2026-05-06 22:07 | 47.43734 | -70.77532 | 35828 ft | 416 kts | 245° |
| 2026-05-06 22:08 | 47.41542 | -70.85477 | 35820 ft | 417 kts | 245° |
| 2026-05-06 22:08 | 47.39361 | -70.93356 | 35832 ft | 416 kts | 245° |
| 2026-05-06 22:09 | 47.37162 | -71.01279 | 35829 ft | 416 kts | 245° |
| 2026-05-06 22:09 | 47.34955 | -71.09199 | 35846 ft | 416 kts | 245° |
| 2026-05-06 22:10 | 47.32760 | -71.17053 | 35834 ft | 417 kts | 245° |
| 2026-05-06 22:10 | 47.30536 | -71.24982 | 35841 ft | 417 kts | 245° |
| 2026-05-06 22:11 | 47.28313 | -71.32884 | 35830 ft | 417 kts | 245° |
| 2026-05-06 22:11 | 47.26097 | -71.40734 | 35838 ft | 417 kts | 245° |
| 2026-05-06 22:12 | 47.23858 | -71.48641 | 35835 ft | 417 kts | 245° |
| 2026-05-06 22:12 | 47.21620 | -71.56518 | 35835 ft | 417 kts | 245° |
| 2026-05-06 22:13 | 47.19390 | -71.64342 | 35844 ft | 417 kts | 245° |
| 2026-05-06 22:13 | 47.17134 | -71.72229 | 35838 ft | 417 kts | 245° |
| 2026-05-06 22:14 | 47.14877 | -71.80099 | 35834 ft | 417 kts | 245° |
| 2026-05-06 22:14 | 47.12623 | -71.87928 | 35838 ft | 417 kts | 245° |
| 2026-05-06 22:15 | 47.10351 | -71.95796 | 35838 ft | 417 kts | 245° |
| 2026-05-06 22:15 | 47.08087 | -72.03611 | 35842 ft | 417 kts | 245° |
| 2026-05-06 22:16 | 47.05808 | -72.11456 | 35845 ft | 417 kts | 245° |
| 2026-05-06 22:16 | 47.03542 | -72.19229 | 35847 ft | 416 kts | 245° |
| 2026-05-06 22:17 | 47.01261 | -72.27028 | 35845 ft | 415 kts | 245° |
| 2026-05-06 22:17 | 46.98977 | -72.34813 | 35841 ft | 414 kts | 245° |
| 2026-05-06 22:18 | 46.96692 | -72.42576 | 35841 ft | 414 kts | 245° |
| 2026-05-06 22:18 | 46.94421 | -72.50269 | 35846 ft | 413 kts | 245° |
| 2026-05-06 22:19 | 46.92133 | -72.57992 | 35840 ft | 412 kts | 245° |
| 2026-05-06 22:19 | 46.89844 | -72.65698 | 35843 ft | 412 kts | 245° |
| 2026-05-06 22:20 | 46.87572 | -72.73322 | 35841 ft | 411 kts | 245° |
| 2026-05-06 22:20 | 46.85273 | -72.81012 | 35838 ft | 411 kts | 245° |
| 2026-05-06 22:21 | 46.82990 | -72.88624 | 35835 ft | 410 kts | 245° |
| 2026-05-06 22:21 | 46.80695 | -72.96255 | 35833 ft | 410 kts | 245° |
| 2026-05-06 22:22 | 46.78394 | -73.03885 | 35830 ft | 410 kts | 245° |
| 2026-05-06 22:22 | 46.76086 | -73.11509 | 35827 ft | 410 kts | 245° |
| 2026-05-06 22:23 | 46.73791 | -73.19071 | 35825 ft | 409 kts | 245° |
| 2026-05-06 22:23 | 46.71474 | -73.26681 | 35825 ft | 409 kts | 245° |
| 2026-05-06 22:24 | 46.69159 | -73.34264 | 35820 ft | 409 kts | 245° |
| 2026-05-06 22:24 | 46.66854 | -73.41786 | 35821 ft | 409 kts | 245° |
| 2026-05-06 22:25 | 46.64530 | -73.49353 | 35821 ft | 408 kts | 245° |
| 2026-05-06 22:25 | 46.62199 | -73.56917 | 35815 ft | 408 kts | 245° |
| 2026-05-06 22:26 | 46.59882 | -73.64412 | 35818 ft | 408 kts | 245° |
| 2026-05-06 22:26 | 46.57549 | -73.71940 | 35818 ft | 408 kts | 245° |
| 2026-05-06 22:27 | 46.55216 | -73.79445 | 35821 ft | 408 kts | 245° |
| 2026-05-06 22:27 | 46.52866 | -73.86980 | 35816 ft | 408 kts | 245° |
| 2026-05-06 22:28 | 46.50517 | -73.94490 | 35802 ft | 407 kts | 245° |
| 2026-05-06 22:28 | 46.48168 | -74.01978 | 35822 ft | 407 kts | 245° |
| 2026-05-06 22:29 | 46.45809 | -74.09476 | 35806 ft | 407 kts | 245° |
| 2026-05-06 22:29 | 46.43464 | -74.16907 | 35831 ft | 406 kts | 245° |
| 2026-05-06 22:30 | 46.41099 | -74.24382 | 35816 ft | 406 kts | 245° |
| 2026-05-06 22:30 | 46.38738 | -74.31821 | 35840 ft | 405 kts | 245° |
| 2026-05-06 22:31 | 46.36391 | -74.39195 | 35826 ft | 405 kts | 245° |
| 2026-05-06 22:31 | 46.34024 | -74.46610 | 35823 ft | 405 kts | 245° |
| 2026-05-06 22:32 | 46.31656 | -74.54008 | 35814 ft | 405 kts | 245° |
| 2026-05-06 22:32 | 46.29279 | -74.61410 | 35821 ft | 404 kts | 245° |
| 2026-05-06 22:33 | 46.26904 | -74.68786 | 35818 ft | 404 kts | 245° |
| 2026-05-06 22:33 | 46.24525 | -74.76153 | 35820 ft | 403 kts | 245° |
| 2026-05-06 22:34 | 46.22160 | -74.83457 | 35827 ft | 403 kts | 245° |
| 2026-05-06 22:34 | 46.19777 | -74.90797 | 35820 ft | 403 kts | 245° |
| 2026-05-06 22:35 | 46.17793 | -74.96889 | 35826 ft | 402 kts | 245° |
| 2026-05-06 22:35 | 46.15408 | -75.04197 | 35828 ft | 402 kts | 245° |
| 2026-05-06 22:36 | 46.13027 | -75.11470 | 35816 ft | 402 kts | 245° |
| 2026-05-06 22:36 | 46.10634 | -75.18760 | 35837 ft | 402 kts | 245° |
| 2026-05-06 22:37 | 46.08234 | -75.26051 | 35834 ft | 401 kts | 245° |
| 2026-05-06 22:37 | 46.05834 | -75.33321 | 35834 ft | 401 kts | 245° |
| 2026-05-06 22:38 | 46.03426 | -75.40598 | 35859 ft | 402 kts | 245° |
| 2026-05-06 22:38 | 46.00988 | -75.47945 | 35841 ft | 415 kts | 244° |
| 2026-05-06 22:39 | 45.98460 | -75.55537 | 35836 ft | 421 kts | 244° |
| 2026-05-06 22:39 | 45.95938 | -75.63094 | 35830 ft | 420 kts | 244° |
| 2026-05-06 22:40 | 45.93402 | -75.70673 | 35826 ft | 419 kts | 244° |
| 2026-05-06 22:40 | 45.90867 | -75.78223 | 35834 ft | 418 kts | 244° |
| 2026-05-06 22:41 | 45.86471 | -75.89002 | 35835 ft | 416 kts | 238° |
| 2026-05-06 22:42 | 45.83392 | -75.95981 | 35832 ft | 415 kts | 238° |
| 2026-05-06 22:42 | 45.80301 | -76.02998 | 35836 ft | 415 kts | 239° |
| 2026-05-06 22:43 | 45.77214 | -76.10005 | 35836 ft | 415 kts | 238° |
| 2026-05-06 22:43 | 45.74130 | -76.16994 | 35838 ft | 415 kts | 238° |
| 2026-05-06 22:44 | 45.71036 | -76.23987 | 35847 ft | 415 kts | 238° |
| 2026-05-06 22:44 | 45.67944 | -76.30959 | 35843 ft | 416 kts | 238° |
| 2026-05-06 22:45 | 45.64829 | -76.37964 | 35845 ft | 417 kts | 238° |
| 2026-05-06 22:45 | 45.61730 | -76.44916 | 35853 ft | 417 kts | 238° |
| 2026-05-06 22:46 | 45.58603 | -76.51915 | 35854 ft | 418 kts | 238° |
| 2026-05-06 22:46 | 45.55463 | -76.58924 | 35855 ft | 418 kts | 238° |
| 2026-05-06 22:47 | 45.52317 | -76.65928 | 35858 ft | 418 kts | 238° |
| 2026-05-06 22:47 | 45.49165 | -76.72930 | 35857 ft | 418 kts | 238° |
| 2026-05-06 22:48 | 45.46031 | -76.79875 | 35859 ft | 418 kts | 238° |
| 2026-05-06 22:48 | 45.42881 | -76.86837 | 35862 ft | 418 kts | 238° |
| 2026-05-06 22:49 | 45.39727 | -76.93792 | 35868 ft | 417 kts | 238° |
| 2026-05-06 22:49 | 45.36568 | -77.00739 | 35864 ft | 417 kts | 238° |
| 2026-05-06 22:50 | 45.33412 | -77.07663 | 35874 ft | 417 kts | 238° |
| 2026-05-06 22:50 | 45.30264 | -77.14554 | 35872 ft | 417 kts | 238° |
| 2026-05-06 22:51 | 45.27099 | -77.21464 | 35878 ft | 417 kts | 238° |
| 2026-05-06 22:51 | 45.23920 | -77.28388 | 35875 ft | 417 kts | 238° |
| 2026-05-06 22:52 | 45.20764 | -77.35246 | 35882 ft | 417 kts | 238° |
| 2026-05-06 22:52 | 45.17582 | -77.42145 | 35878 ft | 417 kts | 238° |
| 2026-05-06 22:53 | 45.14399 | -77.49028 | 35883 ft | 417 kts | 238° |
| 2026-05-06 22:53 | 45.11210 | -77.55905 | 35894 ft | 417 kts | 238° |
| 2026-05-06 22:54 | 45.08016 | -77.62780 | 35895 ft | 417 kts | 238° |
| 2026-05-06 22:54 | 45.04842 | -77.69594 | 35901 ft | 417 kts | 238° |
| 2026-05-06 22:55 | 45.01642 | -77.76448 | 35904 ft | 417 kts | 238° |
| 2026-05-06 22:55 | 44.98435 | -77.83299 | 35907 ft | 417 kts | 238° |
| 2026-05-06 22:56 | 44.95250 | -77.90088 | 35910 ft | 416 kts | 238° |
| 2026-05-06 22:56 | 44.92046 | -77.96902 | 35910 ft | 416 kts | 238° |
| 2026-05-06 22:57 | 44.88826 | -78.03733 | 35914 ft | 416 kts | 238° |
| 2026-05-06 22:57 | 44.85608 | -78.10542 | 35917 ft | 416 kts | 238° |
| 2026-05-06 22:58 | 44.82397 | -78.17321 | 35922 ft | 415 kts | 238° |
| 2026-05-06 22:58 | 44.79177 | -78.24104 | 35924 ft | 415 kts | 238° |
| 2026-05-06 22:59 | 44.75978 | -78.30828 | 35929 ft | 415 kts | 238° |
| 2026-05-06 22:59 | 44.72747 | -78.37601 | 35926 ft | 415 kts | 238° |
| 2026-05-06 23:00 | 44.69520 | -78.44352 | 35931 ft | 415 kts | 238° |
| 2026-05-06 23:00 | 44.66313 | -78.51043 | 35934 ft | 415 kts | 238° |
| 2026-05-06 23:01 | 44.63080 | -78.57774 | 35933 ft | 414 kts | 238° |
| 2026-05-06 23:01 | 44.59841 | -78.64502 | 35938 ft | 414 kts | 238° |
| 2026-05-06 23:02 | 44.56628 | -78.71160 | 35943 ft | 414 kts | 238° |
| 2026-05-06 23:02 | 44.53380 | -78.77874 | 35942 ft | 414 kts | 238° |
| 2026-05-06 23:03 | 44.50160 | -78.84517 | 35944 ft | 413 kts | 238° |
| 2026-05-06 23:03 | 44.46917 | -78.91191 | 35945 ft | 413 kts | 238° |
| 2026-05-06 23:04 | 44.43692 | -78.97813 | 35949 ft | 413 kts | 238° |
| 2026-05-06 23:04 | 44.40445 | -79.04466 | 35949 ft | 413 kts | 238° |
| 2026-05-06 23:05 | 44.37197 | -79.11108 | 35958 ft | 413 kts | 238° |
| 2026-05-06 23:05 | 44.33949 | -79.17732 | 35957 ft | 412 kts | 238° |
| 2026-05-06 23:06 | 44.30478 | -79.24090 | 35958 ft | 415 kts | 232° |
| 2026-05-06 23:06 | 44.27235 | -79.29047 | 35963 ft | 415 kts | 232° |
| 2026-05-06 23:07 | 44.23334 | -79.35033 | 35955 ft | 415 kts | 232° |
| 2026-05-06 23:07 | 44.19452 | -79.41001 | 35956 ft | 414 kts | 232° |
| 2026-05-06 23:08 | 44.15599 | -79.46921 | 35954 ft | 414 kts | 232° |
| 2026-05-06 23:08 | 44.11715 | -79.52876 | 35953 ft | 414 kts | 232° |
| 2026-05-06 23:09 | 44.07849 | -79.58792 | 35951 ft | 414 kts | 232° |
| 2026-05-06 23:09 | 44.03970 | -79.64714 | 35956 ft | 414 kts | 232° |
| 2026-05-06 23:10 | 44.00080 | -79.70642 | 35948 ft | 414 kts | 232° |
| 2026-05-06 23:10 | 43.96180 | -79.76571 | 35947 ft | 414 kts | 232° |
| 2026-05-06 23:11 | 43.92283 | -79.82484 | 35949 ft | 414 kts | 232° |
| 2026-05-06 23:11 | 43.88406 | -79.88356 | 35945 ft | 415 kts | 232° |
| 2026-05-06 23:12 | 43.84491 | -79.94273 | 35954 ft | 414 kts | 232° |
| 2026-05-06 23:12 | 43.80617 | -80.00116 | 35949 ft | 414 kts | 232° |
| 2026-05-06 23:13 | 43.76710 | -80.05992 | 35954 ft | 413 kts | 232° |
| 2026-05-06 23:13 | 43.72815 | -80.11836 | 35955 ft | 412 kts | 232° |
| 2026-05-06 23:14 | 43.68947 | -80.17632 | 35953 ft | 411 kts | 232° |
| 2026-05-06 23:14 | 43.65061 | -80.23443 | 35955 ft | 410 kts | 232° |
| 2026-05-06 23:15 | 43.61180 | -80.29237 | 35957 ft | 409 kts | 232° |
| 2026-05-06 23:15 | 43.57343 | -80.34954 | 35962 ft | 407 kts | 233° |
| 2026-05-06 23:16 | 43.53492 | -80.40680 | 35961 ft | 406 kts | 233° |
| 2026-05-06 23:16 | 43.49650 | -80.46380 | 35963 ft | 405 kts | 233° |
| 2026-05-06 23:17 | 43.45819 | -80.52054 | 35963 ft | 404 kts | 233° |
| 2026-05-06 23:17 | 43.41994 | -80.57707 | 35965 ft | 404 kts | 233° |
| 2026-05-06 23:18 | 43.38156 | -80.63369 | 35967 ft | 404 kts | 233° |
| 2026-05-06 23:18 | 43.34318 | -80.69019 | 35961 ft | 404 kts | 233° |
| 2026-05-06 23:19 | 43.30484 | -80.74651 | 35968 ft | 403 kts | 233° |
| 2026-05-06 23:19 | 43.26643 | -80.80284 | 35971 ft | 402 kts | 233° |
| 2026-05-06 23:20 | 43.22833 | -80.85859 | 35976 ft | 402 kts | 233° |
| 2026-05-06 23:20 | 43.19006 | -80.91449 | 35977 ft | 401 kts | 233° |
| 2026-05-06 23:21 | 43.15192 | -80.97011 | 35980 ft | 400 kts | 233° |
| 2026-05-06 23:21 | 43.11365 | -81.02579 | 35979 ft | 399 kts | 233° |
| 2026-05-06 23:22 | 43.08009 | -81.08452 | 35989 ft | 390 kts | 243° |
| 2026-05-06 23:22 | 43.05347 | -81.14913 | 35980 ft | 387 kts | 247° |
| 2026-05-06 23:23 | 43.03457 | -81.21769 | 35984 ft | 385 kts | 253° |
| 2026-05-06 23:23 | 43.01757 | -81.28675 | 35982 ft | 386 kts | 253° |
| 2026-05-06 23:24 | 43.00029 | -81.35641 | 35987 ft | 386 kts | 252° |
| 2026-05-06 23:24 | 42.98283 | -81.42599 | 35986 ft | 387 kts | 252° |
| 2026-05-06 23:25 | 42.96530 | -81.49536 | 35987 ft | 388 kts | 252° |
| 2026-05-06 23:25 | 42.94762 | -81.56505 | 35987 ft | 388 kts | 252° |
| 2026-05-06 23:26 | 42.92990 | -81.63468 | 35989 ft | 388 kts | 252° |
| 2026-05-06 23:26 | 42.91213 | -81.70427 | 35987 ft | 387 kts | 252° |
| 2026-05-06 23:27 | 42.89435 | -81.77375 | 35989 ft | 387 kts | 252° |
| 2026-05-06 23:27 | 42.87664 | -81.84273 | 35990 ft | 387 kts | 252° |
| 2026-05-06 23:28 | 42.85876 | -81.91219 | 35990 ft | 387 kts | 252° |
| 2026-05-06 23:28 | 42.84089 | -81.98140 | 35986 ft | 386 kts | 252° |
| 2026-05-06 23:29 | 42.82310 | -82.05009 | 35991 ft | 386 kts | 252° |
| 2026-05-06 23:29 | 42.80517 | -82.11912 | 35988 ft | 386 kts | 252° |
| 2026-05-06 23:30 | 42.78716 | -82.18827 | 35987 ft | 386 kts | 252° |
| 2026-05-06 23:30 | 42.76913 | -82.25733 | 35987 ft | 386 kts | 252° |
| 2026-05-06 23:31 | 42.75114 | -82.32599 | 35985 ft | 387 kts | 252° |
| 2026-05-06 23:31 | 42.73301 | -82.39505 | 35984 ft | 387 kts | 252° |
| 2026-05-06 23:32 | 42.71481 | -82.46418 | 35985 ft | 387 kts | 252° |
| 2026-05-06 23:32 | 42.69654 | -82.53320 | 35981 ft | 387 kts | 251° |
| 2026-05-06 23:33 | 42.67836 | -82.60156 | 35955 ft | 387 kts | 251° |
| 2026-05-06 23:33 | 42.65999 | -82.67046 | 35947 ft | 387 kts | 251° |
| 2026-05-06 23:34 | 42.64165 | -82.73911 | 35946 ft | 386 kts | 251° |
| 2026-05-06 23:34 | 42.62325 | -82.80781 | 35945 ft | 385 kts | 251° |
| 2026-05-06 23:35 | 42.60494 | -82.87597 | 36032 ft | 387 kts | 251° |
| 2026-05-06 23:35 | 42.59566 | -82.91047 | 36301 ft | 388 kts | 251° |
| 2026-05-06 23:35 | 42.58639 | -82.94486 | 36559 ft | 388 kts | 251° |
| 2026-05-06 23:35 | 42.57708 | -82.97936 | 36831 ft | 388 kts | 251° |
| 2026-05-06 23:36 | 42.57405 | -82.99056 | 36922 ft | 388 kts | 251° |
| 2026-05-06 23:36 | 42.56932 | -83.00808 | 37069 ft | 389 kts | 251° |
| 2026-05-06 23:36 | 42.55997 | -83.04260 | 37288 ft | 390 kts | 251° |
| 2026-05-06 23:37 | 42.55056 | -83.07736 | 37530 ft | 391 kts | 251° |
| 2026-05-06 23:37 | 42.54127 | -83.11157 | 37755 ft | 391 kts | 251° |
| 2026-05-06 23:37 | 42.53179 | -83.14648 | 37886 ft | 393 kts | 251° |
| 2026-05-06 23:38 | 42.51276 | -83.21636 | 37975 ft | 394 kts | 251° |
| 2026-05-06 23:38 | 42.49385 | -83.28558 | 37977 ft | 392 kts | 251° |
| 2026-05-06 23:39 | 42.47483 | -83.35501 | 37972 ft | 391 kts | 251° |
| 2026-05-06 23:39 | 42.45905 | -83.41252 | 37977 ft | 391 kts | 251° |
| 2026-05-06 23:40 | 42.43694 | -83.49289 | 37983 ft | 390 kts | 251° |
| 2026-05-06 23:40 | 42.41920 | -83.54918 | 37980 ft | 392 kts | 243° |
| 2026-05-06 23:41 | 42.38799 | -83.61029 | 37982 ft | 396 kts | 237° |
| 2026-05-06 23:41 | 42.34919 | -83.66426 | 37985 ft | 404 kts | 228° |
| 2026-05-06 23:42 | 42.30620 | -83.71288 | 37973 ft | 405 kts | 227° |
| 2026-05-06 23:42 | 42.26286 | -83.76152 | 37969 ft | 404 kts | 227° |
| 2026-05-06 23:43 | 42.21976 | -83.81028 | 37973 ft | 402 kts | 227° |
| 2026-05-06 23:43 | 42.17711 | -83.85875 | 37967 ft | 401 kts | 227° |
| 2026-05-06 23:44 | 42.13444 | -83.90724 | 37968 ft | 399 kts | 227° |
| 2026-05-06 23:44 | 42.09220 | -83.95516 | 37974 ft | 398 kts | 227° |
| 2026-05-06 23:45 | 42.04984 | -84.00313 | 37985 ft | 397 kts | 227° |
| 2026-05-06 23:45 | 42.00764 | -84.05083 | 37980 ft | 395 kts | 228° |
| 2026-05-06 23:46 | 41.96558 | -84.09828 | 37989 ft | 393 kts | 228° |
| 2026-05-06 23:46 | 41.92369 | -84.14546 | 37987 ft | 392 kts | 228° |
| 2026-05-06 23:47 | 41.88213 | -84.19219 | 37986 ft | 390 kts | 228° |
| 2026-05-06 23:47 | 41.84051 | -84.23890 | 37987 ft | 389 kts | 228° |
| 2026-05-06 23:48 | 41.79895 | -84.28548 | 37990 ft | 388 kts | 228° |
| 2026-05-06 23:48 | 41.75767 | -84.33164 | 37992 ft | 388 kts | 228° |
| 2026-05-06 23:49 | 41.71608 | -84.37809 | 37990 ft | 387 kts | 228° |
| 2026-05-06 23:49 | 41.67462 | -84.42430 | 37990 ft | 387 kts | 228° |
| 2026-05-06 23:50 | 41.63340 | -84.47016 | 37991 ft | 387 kts | 228° |
| 2026-05-06 23:50 | 41.57131 | -84.53910 | 37997 ft | 386 kts | 228° |
| 2026-05-06 23:51 | 41.52996 | -84.58491 | 37994 ft | 386 kts | 229° |
| 2026-05-06 23:51 | 41.48883 | -84.63039 | 37995 ft | 385 kts | 229° |
| 2026-05-06 23:52 | 41.44752 | -84.67600 | 37993 ft | 384 kts | 229° |
| 2026-05-06 23:52 | 41.40630 | -84.72143 | 37993 ft | 384 kts | 229° |
| 2026-05-06 23:53 | 41.36501 | -84.76686 | 37988 ft | 384 kts | 229° |
| 2026-05-06 23:53 | 41.32387 | -84.81206 | 37989 ft | 383 kts | 229° |
| 2026-05-06 23:54 | 41.28288 | -84.85701 | 37989 ft | 383 kts | 229° |
| 2026-05-06 23:54 | 41.24166 | -84.90213 | 37981 ft | 382 kts | 229° |
| 2026-05-06 23:55 | 41.20057 | -84.94705 | 37984 ft | 382 kts | 229° |
| 2026-05-06 23:55 | 41.15955 | -84.99180 | 37997 ft | 381 kts | 229° |
| 2026-05-06 23:56 | 41.11873 | -85.03628 | 38007 ft | 380 kts | 229° |
| 2026-05-06 23:56 | 41.07794 | -85.08064 | 38008 ft | 380 kts | 229° |
| 2026-05-06 23:57 | 41.03700 | -85.12511 | 38002 ft | 379 kts | 230° |
| 2026-05-06 23:57 | 40.99612 | -85.16944 | 38010 ft | 379 kts | 230° |
| 2026-05-06 23:58 | 40.95534 | -85.21296 | 38008 ft | 380 kts | 229° |
| 2026-05-06 23:58 | 40.91362 | -85.25597 | 38008 ft | 379 kts | 229° |
| 2026-05-06 23:59 | 40.87194 | -85.29879 | 37999 ft | 379 kts | 229° |
| 2026-05-06 23:59 | 40.83046 | -85.34147 | 38011 ft | 378 kts | 229° |
| 2026-05-07 00:00 | 40.78888 | -85.38425 | 38008 ft | 377 kts | 229° |
| 2026-05-07 00:00 | 40.75458 | -85.41952 | 37996 ft | 376 kts | 229° |
| 2026-05-07 00:01 | 40.70655 | -85.46885 | 38005 ft | 375 kts | 229° |
| 2026-05-07 00:01 | 40.66527 | -85.51116 | 38014 ft | 373 kts | 229° |
| 2026-05-07 00:02 | 40.62422 | -85.55317 | 38014 ft | 373 kts | 229° |
| 2026-05-07 00:02 | 40.58342 | -85.59486 | 38015 ft | 372 kts | 229° |
| 2026-05-07 00:03 | 40.54243 | -85.63668 | 38019 ft | 372 kts | 229° |
| 2026-05-07 00:03 | 40.50144 | -85.67843 | 38012 ft | 372 kts | 229° |
| 2026-05-07 00:04 | 40.46073 | -85.71983 | 38015 ft | 371 kts | 229° |
| 2026-05-07 00:04 | 40.41983 | -85.76136 | 38012 ft | 371 kts | 229° |
| 2026-05-07 00:05 | 40.37891 | -85.80283 | 37971 ft | 370 kts | 229° |
| 2026-05-07 00:05 | 40.33811 | -85.84413 | 37981 ft | 370 kts | 229° |
| 2026-05-07 00:06 | 40.29720 | -85.88547 | 37986 ft | 369 kts | 229° |
| 2026-05-07 00:06 | 40.25675 | -85.92628 | 37998 ft | 369 kts | 229° |
| 2026-05-07 00:07 | 40.21607 | -85.96726 | 38003 ft | 368 kts | 229° |
| 2026-05-07 00:07 | 40.17528 | -86.00829 | 38025 ft | 368 kts | 229° |
| 2026-05-07 00:08 | 40.13465 | -86.04910 | 38021 ft | 368 kts | 229° |
| 2026-05-07 00:08 | 40.09398 | -86.08988 | 38024 ft | 367 kts | 229° |
| 2026-05-07 00:09 | 40.05363 | -86.13028 | 38031 ft | 367 kts | 229° |
| 2026-05-07 00:09 | 40.01307 | -86.17082 | 38021 ft | 366 kts | 229° |
| 2026-05-07 00:10 | 39.97264 | -86.21118 | 38021 ft | 366 kts | 229° |
| 2026-05-07 00:10 | 39.93220 | -86.25149 | 38024 ft | 365 kts | 229° |
| 2026-05-07 00:11 | 39.89180 | -86.29171 | 38016 ft | 365 kts | 229° |
| 2026-05-07 00:11 | 39.85128 | -86.33198 | 38012 ft | 365 kts | 229° |
| 2026-05-07 00:12 | 39.81048 | -86.37098 | 38014 ft | 369 kts | 226° |
| 2026-05-07 00:12 | 39.77344 | -86.39994 | 38017 ft | 374 kts | 224° |
| 2026-05-07 00:13 | 39.72858 | -86.43386 | 38011 ft | 373 kts | 224° |
| 2026-05-07 00:13 | 39.68369 | -86.46780 | 38013 ft | 372 kts | 224° |
| 2026-05-07 00:14 | 39.63899 | -86.50163 | 38016 ft | 370 kts | 224° |
| 2026-05-07 00:14 | 39.59446 | -86.53533 | 38028 ft | 370 kts | 224° |
| 2026-05-07 00:15 | 39.55029 | -86.56872 | 38040 ft | 369 kts | 224° |
| 2026-05-07 00:15 | 39.50593 | -86.60220 | 38030 ft | 368 kts | 224° |
| 2026-05-07 00:16 | 39.46162 | -86.63559 | 38037 ft | 367 kts | 224° |
| 2026-05-07 00:16 | 39.41758 | -86.66874 | 38036 ft | 367 kts | 224° |
| 2026-05-07 00:17 | 39.37335 | -86.70198 | 38030 ft | 367 kts | 224° |
| 2026-05-07 00:17 | 39.32916 | -86.73514 | 38024 ft | 366 kts | 224° |
| 2026-05-07 00:18 | 39.28498 | -86.76824 | 38025 ft | 366 kts | 224° |
| 2026-05-07 00:18 | 39.24093 | -86.80120 | 38031 ft | 366 kts | 224° |
| 2026-05-07 00:19 | 39.19694 | -86.83408 | 38025 ft | 366 kts | 224° |
| 2026-05-07 00:19 | 39.15265 | -86.86711 | 38028 ft | 367 kts | 224° |
| 2026-05-07 00:20 | 39.10858 | -86.89994 | 38028 ft | 367 kts | 224° |
| 2026-05-07 00:20 | 39.06425 | -86.93290 | 38027 ft | 367 kts | 224° |
| 2026-05-07 00:21 | 39.01989 | -86.96585 | 38028 ft | 368 kts | 224° |
| 2026-05-07 00:21 | 38.97549 | -86.99877 | 38036 ft | 367 kts | 224° |
| 2026-05-07 00:22 | 38.93118 | -87.03158 | 38039 ft | 367 kts | 224° |
| 2026-05-07 00:22 | 38.88684 | -87.06436 | 38034 ft | 367 kts | 224° |
| 2026-05-07 00:23 | 38.84276 | -87.09691 | 38040 ft | 367 kts | 224° |
| 2026-05-07 00:23 | 38.79828 | -87.12970 | 38045 ft | 367 kts | 224° |
| 2026-05-07 00:24 | 38.75409 | -87.16224 | 38042 ft | 367 kts | 224° |
| 2026-05-07 00:24 | 38.70967 | -87.19489 | 38041 ft | 367 kts | 224° |
| 2026-05-07 00:25 | 38.66536 | -87.22742 | 38037 ft | 368 kts | 224° |
| 2026-05-07 00:25 | 38.62088 | -87.26003 | 38038 ft | 368 kts | 224° |
| 2026-05-07 00:26 | 38.57640 | -87.29258 | 38040 ft | 368 kts | 224° |
| 2026-05-07 00:26 | 38.53188 | -87.32512 | 38045 ft | 368 kts | 224° |
| 2026-05-07 00:27 | 38.48736 | -87.35762 | 38040 ft | 368 kts | 224° |
| 2026-05-07 00:27 | 38.44280 | -87.39010 | 38048 ft | 368 kts | 223° |
| 2026-05-07 00:28 | 38.39820 | -87.42255 | 38050 ft | 369 kts | 223° |
| 2026-05-07 00:28 | 38.35383 | -87.45480 | 38053 ft | 369 kts | 223° |
| 2026-05-07 00:29 | 38.30901 | -87.48733 | 38049 ft | 369 kts | 223° |
| 2026-05-07 00:30 | 38.21969 | -87.55200 | 38047 ft | 370 kts | 223° |
| 2026-05-07 00:30 | 38.17487 | -87.58439 | 38043 ft | 370 kts | 223° |
| 2026-05-07 00:31 | 38.13006 | -87.61672 | 38044 ft | 370 kts | 223° |
| 2026-05-07 00:31 | 38.08547 | -87.64885 | 38039 ft | 370 kts | 223° |
| 2026-05-07 00:32 | 38.04069 | -87.68108 | 38044 ft | 370 kts | 223° |
| 2026-05-07 00:32 | 37.99579 | -87.71335 | 38043 ft | 370 kts | 223° |
| 2026-05-07 00:33 | 37.95091 | -87.74556 | 38045 ft | 370 kts | 223° |
| 2026-05-07 00:33 | 37.90591 | -87.77783 | 38048 ft | 373 kts | 223° |
| 2026-05-07 00:34 | 37.86038 | -87.81071 | 38054 ft | 379 kts | 223° |
| 2026-05-07 00:34 | 37.81457 | -87.84394 | 38044 ft | 380 kts | 223° |
| 2026-05-07 00:35 | 37.76866 | -87.87727 | 38044 ft | 380 kts | 223° |
| 2026-05-07 00:35 | 37.72272 | -87.91061 | 38050 ft | 380 kts | 223° |